<?xml version="1.0" encoding="utf-8"?>
<gpx xmlns:xsi="http://www.w3.org/2001/XMLSchema-instance" xmlns:xsd="http://www.w3.org/2001/XMLSchema" version="1.1" creator="Shapelink.com" xmlns="http://www.topografix.com/GPX/1/1" xmlns:gpxtpx="http://www.garmin.com/xmlschemas/TrackPointExtension/v1">
  <metadata>
    <name>Løping 2.67 km, 2014-06-07</name>
    <desc></desc>
    <author><name>Mikael Blom</name></author> 
    <time>2014-06-07T15:03:06Z</time>
  </metadata>
  <trk>
    <name>Løping 2.67 km, 2014-06-07</name>
    <trkseg>
      <trkpt lat="60.0211408" lon="17.7509751">
        <ele>50.126</ele>
        <time>2014-06-07T15:03:06Z</time>
      </trkpt>
      <trkpt lat="60.0211392" lon="17.7509898">
        <ele>50.126</ele>
        <time>2014-06-07T15:03:07Z</time>
      </trkpt>
      <trkpt lat="60.021139" lon="17.7510064">
        <ele>49.6453</ele>
        <time>2014-06-07T15:03:08Z</time>
      </trkpt>
      <trkpt lat="60.0211392" lon="17.7510242">
        <ele>49.1646</ele>
        <time>2014-06-07T15:03:09Z</time>
      </trkpt>
      <trkpt lat="60.0211331" lon="17.751041">
        <ele>48.684</ele>
        <time>2014-06-07T15:03:10Z</time>
      </trkpt>
      <trkpt lat="60.0211276" lon="17.7510619">
        <ele>48.2034</ele>
        <time>2014-06-07T15:03:11Z</time>
      </trkpt>
      <trkpt lat="60.0211195" lon="17.7510982">
        <ele>47.7225</ele>
        <time>2014-06-07T15:03:12Z</time>
      </trkpt>
      <trkpt lat="60.0211082" lon="17.7511339">
        <ele>46.7612</ele>
        <time>2014-06-07T15:03:13Z</time>
      </trkpt>
      <trkpt lat="60.0210939" lon="17.7511679">
        <ele>46.2806</ele>
        <time>2014-06-07T15:03:14Z</time>
      </trkpt>
      <trkpt lat="60.0210731" lon="17.7512028">
        <ele>45.7999</ele>
        <time>2014-06-07T15:03:15Z</time>
      </trkpt>
      <trkpt lat="60.0210487" lon="17.75127">
        <ele>45.7999</ele>
        <time>2014-06-07T15:03:16Z</time>
      </trkpt>
      <trkpt lat="60.0210265" lon="17.7513343">
        <ele>45.7999</ele>
        <time>2014-06-07T15:03:17Z</time>
      </trkpt>
      <trkpt lat="60.0210092" lon="17.7514025">
        <ele>46.7612</ele>
        <time>2014-06-07T15:03:18Z</time>
      </trkpt>
      <trkpt lat="60.0209941" lon="17.751468">
        <ele>47.7225</ele>
        <time>2014-06-07T15:03:19Z</time>
      </trkpt>
      <trkpt lat="60.0209815" lon="17.7515273">
        <ele>48.2034</ele>
        <time>2014-06-07T15:03:20Z</time>
      </trkpt>
      <trkpt lat="60.0209669" lon="17.7515572">
        <ele>48.684</ele>
        <time>2014-06-07T15:03:21Z</time>
      </trkpt>
      <trkpt lat="60.0209535" lon="17.7515979">
        <ele>49.6453</ele>
        <time>2014-06-07T15:03:22Z</time>
      </trkpt>
      <trkpt lat="60.0209449" lon="17.7516451">
        <ele>50.126</ele>
        <time>2014-06-07T15:03:23Z</time>
      </trkpt>
      <trkpt lat="60.0209467" lon="17.7516921">
        <ele>51.5679</ele>
        <time>2014-06-07T15:03:24Z</time>
      </trkpt>
      <trkpt lat="60.0209361" lon="17.7517522">
        <ele>52.0486</ele>
        <time>2014-06-07T15:03:25Z</time>
      </trkpt>
      <trkpt lat="60.0209051" lon="17.7518078">
        <ele>51.0872</ele>
        <time>2014-06-07T15:03:26Z</time>
      </trkpt>
      <trkpt lat="60.0208871" lon="17.7518472">
        <ele>50.6066</ele>
        <time>2014-06-07T15:03:27Z</time>
      </trkpt>
      <trkpt lat="60.0208776" lon="17.7518957">
        <ele>50.126</ele>
        <time>2014-06-07T15:03:28Z</time>
      </trkpt>
      <trkpt lat="60.0208632" lon="17.751945">
        <ele>49.1646</ele>
        <time>2014-06-07T15:03:29Z</time>
      </trkpt>
      <trkpt lat="60.0208482" lon="17.7519947">
        <ele>49.1646</ele>
        <time>2014-06-07T15:03:30Z</time>
      </trkpt>
      <trkpt lat="60.0208358" lon="17.7520414">
        <ele>49.1646</ele>
        <time>2014-06-07T15:03:31Z</time>
      </trkpt>
      <trkpt lat="60.020825" lon="17.7520978">
        <ele>49.1646</ele>
        <time>2014-06-07T15:03:32Z</time>
      </trkpt>
      <trkpt lat="60.0208099" lon="17.7521445">
        <ele>49.1646</ele>
        <time>2014-06-07T15:03:33Z</time>
      </trkpt>
      <trkpt lat="60.0207908" lon="17.752199">
        <ele>48.684</ele>
        <time>2014-06-07T15:03:34Z</time>
      </trkpt>
      <trkpt lat="60.0207726" lon="17.7522516">
        <ele>48.684</ele>
        <time>2014-06-07T15:03:35Z</time>
      </trkpt>
      <trkpt lat="60.0207638" lon="17.7522964">
        <ele>49.6453</ele>
        <time>2014-06-07T15:03:36Z</time>
      </trkpt>
      <trkpt lat="60.0207482" lon="17.7523408">
        <ele>48.2034</ele>
        <time>2014-06-07T15:03:37Z</time>
      </trkpt>
      <trkpt lat="60.0207422" lon="17.7523962">
        <ele>49.6453</ele>
        <time>2014-06-07T15:03:38Z</time>
      </trkpt>
      <trkpt lat="60.0207342" lon="17.7524351">
        <ele>49.6453</ele>
        <time>2014-06-07T15:03:39Z</time>
      </trkpt>
      <trkpt lat="60.0207192" lon="17.7524712">
        <ele>49.6453</ele>
        <time>2014-06-07T15:03:40Z</time>
      </trkpt>
      <trkpt lat="60.020703" lon="17.7525049">
        <ele>49.6453</ele>
        <time>2014-06-07T15:03:41Z</time>
      </trkpt>
      <trkpt lat="60.0206892" lon="17.7525447">
        <ele>50.126</ele>
        <time>2014-06-07T15:03:42Z</time>
      </trkpt>
      <trkpt lat="60.0206699" lon="17.7525839">
        <ele>49.6453</ele>
        <time>2014-06-07T15:03:43Z</time>
      </trkpt>
      <trkpt lat="60.020654" lon="17.7526216">
        <ele>50.126</ele>
        <time>2014-06-07T15:03:44Z</time>
      </trkpt>
      <trkpt lat="60.0206394" lon="17.7526644">
        <ele>49.6453</ele>
        <time>2014-06-07T15:03:45Z</time>
      </trkpt>
      <trkpt lat="60.0206264" lon="17.7527024">
        <ele>49.6453</ele>
        <time>2014-06-07T15:03:46Z</time>
      </trkpt>
      <trkpt lat="60.0206193" lon="17.7527376">
        <ele>49.6453</ele>
        <time>2014-06-07T15:03:47Z</time>
      </trkpt>
      <trkpt lat="60.0206062" lon="17.7527747">
        <ele>49.6453</ele>
        <time>2014-06-07T15:03:48Z</time>
      </trkpt>
      <trkpt lat="60.0205965" lon="17.7528122">
        <ele>50.126</ele>
        <time>2014-06-07T15:03:49Z</time>
      </trkpt>
      <trkpt lat="60.0205849" lon="17.7528609">
        <ele>50.126</ele>
        <time>2014-06-07T15:03:50Z</time>
      </trkpt>
      <trkpt lat="60.0205695" lon="17.7529188">
        <ele>50.6066</ele>
        <time>2014-06-07T15:03:51Z</time>
      </trkpt>
      <trkpt lat="60.0205531" lon="17.7529634">
        <ele>50.6066</ele>
        <time>2014-06-07T15:03:52Z</time>
      </trkpt>
      <trkpt lat="60.0205401" lon="17.7530065">
        <ele>50.126</ele>
        <time>2014-06-07T15:03:53Z</time>
      </trkpt>
      <trkpt lat="60.0205271" lon="17.7530452">
        <ele>50.126</ele>
        <time>2014-06-07T15:03:54Z</time>
      </trkpt>
      <trkpt lat="60.0205152" lon="17.753078">
        <ele>50.126</ele>
        <time>2014-06-07T15:03:55Z</time>
      </trkpt>
      <trkpt lat="60.0205051" lon="17.7531111">
        <ele>50.126</ele>
        <time>2014-06-07T15:03:56Z</time>
      </trkpt>
      <trkpt lat="60.0204969" lon="17.7531478">
        <ele>50.6066</ele>
        <time>2014-06-07T15:03:57Z</time>
      </trkpt>
      <trkpt lat="60.0204866" lon="17.7531867">
        <ele>51.0872</ele>
        <time>2014-06-07T15:03:58Z</time>
      </trkpt>
      <trkpt lat="60.0204721" lon="17.753227">
        <ele>50.6066</ele>
        <time>2014-06-07T15:03:59Z</time>
      </trkpt>
      <trkpt lat="60.020452" lon="17.7532623">
        <ele>50.6066</ele>
        <time>2014-06-07T15:04:00Z</time>
      </trkpt>
      <trkpt lat="60.0204333" lon="17.7533098">
        <ele>50.126</ele>
        <time>2014-06-07T15:04:01Z</time>
      </trkpt>
      <trkpt lat="60.0204173" lon="17.753352">
        <ele>50.126</ele>
        <time>2014-06-07T15:04:02Z</time>
      </trkpt>
      <trkpt lat="60.0204022" lon="17.7533934">
        <ele>49.6453</ele>
        <time>2014-06-07T15:04:03Z</time>
      </trkpt>
      <trkpt lat="60.0203873" lon="17.7534368">
        <ele>50.126</ele>
        <time>2014-06-07T15:04:04Z</time>
      </trkpt>
      <trkpt lat="60.0203789" lon="17.7534769">
        <ele>50.6066</ele>
        <time>2014-06-07T15:04:05Z</time>
      </trkpt>
      <trkpt lat="60.0203717" lon="17.7535374">
        <ele>50.6066</ele>
        <time>2014-06-07T15:04:06Z</time>
      </trkpt>
      <trkpt lat="60.0203665" lon="17.7535973">
        <ele>51.0872</ele>
        <time>2014-06-07T15:04:07Z</time>
      </trkpt>
      <trkpt lat="60.0203589" lon="17.7536414">
        <ele>50.6066</ele>
        <time>2014-06-07T15:04:08Z</time>
      </trkpt>
      <trkpt lat="60.0203471" lon="17.7536922">
        <ele>50.6066</ele>
        <time>2014-06-07T15:04:09Z</time>
      </trkpt>
      <trkpt lat="60.0203368" lon="17.7537401">
        <ele>50.126</ele>
        <time>2014-06-07T15:04:10Z</time>
      </trkpt>
      <trkpt lat="60.0203256" lon="17.7537893">
        <ele>50.126</ele>
        <time>2014-06-07T15:04:11Z</time>
      </trkpt>
      <trkpt lat="60.0203122" lon="17.7538394">
        <ele>49.6453</ele>
        <time>2014-06-07T15:04:12Z</time>
      </trkpt>
      <trkpt lat="60.0203012" lon="17.7538858">
        <ele>49.6453</ele>
        <time>2014-06-07T15:04:13Z</time>
      </trkpt>
      <trkpt lat="60.0202972" lon="17.7539265">
        <ele>50.126</ele>
        <time>2014-06-07T15:04:14Z</time>
      </trkpt>
      <trkpt lat="60.0202862" lon="17.753972">
        <ele>50.126</ele>
        <time>2014-06-07T15:04:15Z</time>
      </trkpt>
      <trkpt lat="60.0202743" lon="17.7540171">
        <ele>49.6453</ele>
        <time>2014-06-07T15:04:16Z</time>
      </trkpt>
      <trkpt lat="60.0202679" lon="17.7540599">
        <ele>49.6453</ele>
        <time>2014-06-07T15:04:17Z</time>
      </trkpt>
      <trkpt lat="60.0202608" lon="17.7541078">
        <ele>50.126</ele>
        <time>2014-06-07T15:04:18Z</time>
      </trkpt>
      <trkpt lat="60.0202514" lon="17.754155">
        <ele>51.0872</ele>
        <time>2014-06-07T15:04:19Z</time>
      </trkpt>
      <trkpt lat="60.0202459" lon="17.754207">
        <ele>51.5679</ele>
        <time>2014-06-07T15:04:20Z</time>
      </trkpt>
      <trkpt lat="60.0202314" lon="17.7542523">
        <ele>52.5292</ele>
        <time>2014-06-07T15:04:21Z</time>
      </trkpt>
      <trkpt lat="60.020219" lon="17.7542923">
        <ele>52.5292</ele>
        <time>2014-06-07T15:04:22Z</time>
      </trkpt>
      <trkpt lat="60.0202145" lon="17.7543466">
        <ele>52.5292</ele>
        <time>2014-06-07T15:04:23Z</time>
      </trkpt>
      <trkpt lat="60.0202078" lon="17.7543935">
        <ele>53.0098</ele>
        <time>2014-06-07T15:04:24Z</time>
      </trkpt>
      <trkpt lat="60.0202038" lon="17.7544376">
        <ele>53.0098</ele>
        <time>2014-06-07T15:04:25Z</time>
      </trkpt>
      <trkpt lat="60.020198" lon="17.7544779">
        <ele>53.0098</ele>
        <time>2014-06-07T15:04:26Z</time>
      </trkpt>
      <trkpt lat="60.020192" lon="17.7545185">
        <ele>53.4905</ele>
        <time>2014-06-07T15:04:27Z</time>
      </trkpt>
      <trkpt lat="60.0201804" lon="17.7545644">
        <ele>53.9712</ele>
        <time>2014-06-07T15:04:28Z</time>
      </trkpt>
      <trkpt lat="60.020171" lon="17.7546103">
        <ele>53.9712</ele>
        <time>2014-06-07T15:04:29Z</time>
      </trkpt>
      <trkpt lat="60.0201628" lon="17.7546594">
        <ele>54.4518</ele>
        <time>2014-06-07T15:04:30Z</time>
      </trkpt>
      <trkpt lat="60.020149" lon="17.754707">
        <ele>54.4518</ele>
        <time>2014-06-07T15:04:31Z</time>
      </trkpt>
      <trkpt lat="60.0201386" lon="17.7547533">
        <ele>54.9324</ele>
        <time>2014-06-07T15:04:32Z</time>
      </trkpt>
      <trkpt lat="60.0201277" lon="17.7547961">
        <ele>54.4518</ele>
        <time>2014-06-07T15:04:33Z</time>
      </trkpt>
      <trkpt lat="60.0201174" lon="17.7548392">
        <ele>54.9324</ele>
        <time>2014-06-07T15:04:34Z</time>
      </trkpt>
      <trkpt lat="60.0201143" lon="17.7548822">
        <ele>54.9324</ele>
        <time>2014-06-07T15:04:35Z</time>
      </trkpt>
      <trkpt lat="60.0201125" lon="17.7549374">
        <ele>55.4131</ele>
        <time>2014-06-07T15:04:36Z</time>
      </trkpt>
      <trkpt lat="60.0201027" lon="17.754997">
        <ele>55.8938</ele>
        <time>2014-06-07T15:04:37Z</time>
      </trkpt>
      <trkpt lat="60.0200941" lon="17.7550479">
        <ele>55.8938</ele>
        <time>2014-06-07T15:04:38Z</time>
      </trkpt>
      <trkpt lat="60.0200825" lon="17.7550997">
        <ele>55.8938</ele>
        <time>2014-06-07T15:04:39Z</time>
      </trkpt>
      <trkpt lat="60.0200723" lon="17.7551513">
        <ele>56.3745</ele>
        <time>2014-06-07T15:04:40Z</time>
      </trkpt>
      <trkpt lat="60.0200648" lon="17.7551967">
        <ele>55.8938</ele>
        <time>2014-06-07T15:04:41Z</time>
      </trkpt>
      <trkpt lat="60.0200588" lon="17.7552508">
        <ele>55.8938</ele>
        <time>2014-06-07T15:04:42Z</time>
      </trkpt>
      <trkpt lat="60.0200534" lon="17.7552965">
        <ele>56.3745</ele>
        <time>2014-06-07T15:04:43Z</time>
      </trkpt>
      <trkpt lat="60.0200503" lon="17.755344">
        <ele>56.3745</ele>
        <time>2014-06-07T15:04:44Z</time>
      </trkpt>
      <trkpt lat="60.0200432" lon="17.7553995">
        <ele>56.8551</ele>
        <time>2014-06-07T15:04:45Z</time>
      </trkpt>
      <trkpt lat="60.0200418" lon="17.7554458">
        <ele>57.3358</ele>
        <time>2014-06-07T15:04:46Z</time>
      </trkpt>
      <trkpt lat="60.0200371" lon="17.7554862">
        <ele>57.3358</ele>
        <time>2014-06-07T15:04:47Z</time>
      </trkpt>
      <trkpt lat="60.0200324" lon="17.7555363">
        <ele>57.3358</ele>
        <time>2014-06-07T15:04:48Z</time>
      </trkpt>
      <trkpt lat="60.0200284" lon="17.7555862">
        <ele>56.8551</ele>
        <time>2014-06-07T15:04:49Z</time>
      </trkpt>
      <trkpt lat="60.02002" lon="17.7556394">
        <ele>55.8938</ele>
        <time>2014-06-07T15:04:50Z</time>
      </trkpt>
      <trkpt lat="60.0200106" lon="17.7556971">
        <ele>55.8938</ele>
        <time>2014-06-07T15:04:51Z</time>
      </trkpt>
      <trkpt lat="60.020007" lon="17.75574">
        <ele>55.4131</ele>
        <time>2014-06-07T15:04:52Z</time>
      </trkpt>
      <trkpt lat="60.0200068" lon="17.7557836">
        <ele>54.9324</ele>
        <time>2014-06-07T15:04:53Z</time>
      </trkpt>
      <trkpt lat="60.0199976" lon="17.755828">
        <ele>53.9712</ele>
        <time>2014-06-07T15:04:54Z</time>
      </trkpt>
      <trkpt lat="60.0199893" lon="17.7558752">
        <ele>53.9712</ele>
        <time>2014-06-07T15:04:55Z</time>
      </trkpt>
      <trkpt lat="60.0199853" lon="17.7559207">
        <ele>53.4905</ele>
        <time>2014-06-07T15:04:56Z</time>
      </trkpt>
      <trkpt lat="60.0199755" lon="17.7559779">
        <ele>53.0098</ele>
        <time>2014-06-07T15:04:57Z</time>
      </trkpt>
      <trkpt lat="60.0199709" lon="17.7560418">
        <ele>53.0098</ele>
        <time>2014-06-07T15:04:58Z</time>
      </trkpt>
      <trkpt lat="60.0199676" lon="17.7560991">
        <ele>52.5292</ele>
        <time>2014-06-07T15:04:59Z</time>
      </trkpt>
      <trkpt lat="60.0199615" lon="17.7561561">
        <ele>52.0486</ele>
        <time>2014-06-07T15:05:00Z</time>
      </trkpt>
      <trkpt lat="60.0199589" lon="17.7562019">
        <ele>51.5679</ele>
        <time>2014-06-07T15:05:01Z</time>
      </trkpt>
      <trkpt lat="60.0199532" lon="17.756249">
        <ele>51.0872</ele>
        <time>2014-06-07T15:05:02Z</time>
      </trkpt>
      <trkpt lat="60.019947" lon="17.7563027">
        <ele>51.0872</ele>
        <time>2014-06-07T15:05:03Z</time>
      </trkpt>
      <trkpt lat="60.0199392" lon="17.7563419">
        <ele>50.6066</ele>
        <time>2014-06-07T15:05:04Z</time>
      </trkpt>
      <trkpt lat="60.0199314" lon="17.7563832">
        <ele>50.6066</ele>
        <time>2014-06-07T15:05:05Z</time>
      </trkpt>
      <trkpt lat="60.0199282" lon="17.7564313">
        <ele>50.6066</ele>
        <time>2014-06-07T15:05:06Z</time>
      </trkpt>
      <trkpt lat="60.0199262" lon="17.7564761">
        <ele>50.6066</ele>
        <time>2014-06-07T15:05:07Z</time>
      </trkpt>
      <trkpt lat="60.0199289" lon="17.7565241">
        <ele>50.6066</ele>
        <time>2014-06-07T15:05:08Z</time>
      </trkpt>
      <trkpt lat="60.0199309" lon="17.7565802">
        <ele>50.6066</ele>
        <time>2014-06-07T15:05:09Z</time>
      </trkpt>
      <trkpt lat="60.0199293" lon="17.7566324">
        <ele>50.6066</ele>
        <time>2014-06-07T15:05:10Z</time>
      </trkpt>
      <trkpt lat="60.0199208" lon="17.756689">
        <ele>50.6066</ele>
        <time>2014-06-07T15:05:11Z</time>
      </trkpt>
      <trkpt lat="60.0199122" lon="17.7567434">
        <ele>50.6066</ele>
        <time>2014-06-07T15:05:12Z</time>
      </trkpt>
      <trkpt lat="60.0199037" lon="17.7567988">
        <ele>51.0872</ele>
        <time>2014-06-07T15:05:13Z</time>
      </trkpt>
      <trkpt lat="60.0198861" lon="17.7568282">
        <ele>51.0872</ele>
        <time>2014-06-07T15:05:14Z</time>
      </trkpt>
      <trkpt lat="60.0198677" lon="17.756861">
        <ele>50.6066</ele>
        <time>2014-06-07T15:05:15Z</time>
      </trkpt>
      <trkpt lat="60.0198537" lon="17.7569079">
        <ele>51.0872</ele>
        <time>2014-06-07T15:05:16Z</time>
      </trkpt>
      <trkpt lat="60.0198414" lon="17.7569686">
        <ele>51.5679</ele>
        <time>2014-06-07T15:05:17Z</time>
      </trkpt>
      <trkpt lat="60.0198269" lon="17.7570297">
        <ele>52.5292</ele>
        <time>2014-06-07T15:05:18Z</time>
      </trkpt>
      <trkpt lat="60.0198148" lon="17.7570965">
        <ele>54.9324</ele>
        <time>2014-06-07T15:05:19Z</time>
      </trkpt>
      <trkpt lat="60.0198003" lon="17.7571405">
        <ele>56.3745</ele>
        <time>2014-06-07T15:05:20Z</time>
      </trkpt>
      <trkpt lat="60.0197862" lon="17.7571847">
        <ele>58.2971</ele>
        <time>2014-06-07T15:05:21Z</time>
      </trkpt>
      <trkpt lat="60.0197718" lon="17.7572276">
        <ele>59.7391</ele>
        <time>2014-06-07T15:05:22Z</time>
      </trkpt>
      <trkpt lat="60.0197603" lon="17.7572547">
        <ele>60.7003</ele>
        <time>2014-06-07T15:05:23Z</time>
      </trkpt>
      <trkpt lat="60.0197564" lon="17.7572821">
        <ele>61.181</ele>
        <time>2014-06-07T15:05:24Z</time>
      </trkpt>
      <trkpt lat="60.0197505" lon="17.7573262">
        <ele>61.6617</ele>
        <time>2014-06-07T15:05:25Z</time>
      </trkpt>
      <trkpt lat="60.0197395" lon="17.7573712">
        <ele>60.7003</ele>
        <time>2014-06-07T15:05:26Z</time>
      </trkpt>
      <trkpt lat="60.0197273" lon="17.7574252">
        <ele>60.7003</ele>
        <time>2014-06-07T15:05:27Z</time>
      </trkpt>
      <trkpt lat="60.0197153" lon="17.7574748">
        <ele>60.7003</ele>
        <time>2014-06-07T15:05:28Z</time>
      </trkpt>
      <trkpt lat="60.0197098" lon="17.7575254">
        <ele>60.7003</ele>
        <time>2014-06-07T15:05:29Z</time>
      </trkpt>
      <trkpt lat="60.0197005" lon="17.7575824">
        <ele>60.2197</ele>
        <time>2014-06-07T15:05:30Z</time>
      </trkpt>
      <trkpt lat="60.0196894" lon="17.7576478">
        <ele>60.2197</ele>
        <time>2014-06-07T15:05:31Z</time>
      </trkpt>
      <trkpt lat="60.0196812" lon="17.7576873">
        <ele>58.7777</ele>
        <time>2014-06-07T15:05:32Z</time>
      </trkpt>
      <trkpt lat="60.019679" lon="17.7577357">
        <ele>58.7777</ele>
        <time>2014-06-07T15:05:33Z</time>
      </trkpt>
      <trkpt lat="60.0196745" lon="17.7577826">
        <ele>58.2971</ele>
        <time>2014-06-07T15:05:34Z</time>
      </trkpt>
      <trkpt lat="60.0196759" lon="17.7578311">
        <ele>58.7777</ele>
        <time>2014-06-07T15:05:35Z</time>
      </trkpt>
      <trkpt lat="60.0196772" lon="17.7578845">
        <ele>58.2971</ele>
        <time>2014-06-07T15:05:36Z</time>
      </trkpt>
      <trkpt lat="60.0196806" lon="17.7579447">
        <ele>57.8165</ele>
        <time>2014-06-07T15:05:37Z</time>
      </trkpt>
      <trkpt lat="60.019687" lon="17.7580009">
        <ele>57.8165</ele>
        <time>2014-06-07T15:05:38Z</time>
      </trkpt>
      <trkpt lat="60.019693" lon="17.758051">
        <ele>57.8165</ele>
        <time>2014-06-07T15:05:39Z</time>
      </trkpt>
      <trkpt lat="60.0196856" lon="17.7580938">
        <ele>57.8165</ele>
        <time>2014-06-07T15:05:40Z</time>
      </trkpt>
      <trkpt lat="60.0196805" lon="17.758141">
        <ele>57.3358</ele>
        <time>2014-06-07T15:05:41Z</time>
      </trkpt>
      <trkpt lat="60.0196801" lon="17.7581876">
        <ele>57.3358</ele>
        <time>2014-06-07T15:05:42Z</time>
      </trkpt>
      <trkpt lat="60.0196826" lon="17.7582383">
        <ele>57.3358</ele>
        <time>2014-06-07T15:05:43Z</time>
      </trkpt>
      <trkpt lat="60.0196862" lon="17.7582975">
        <ele>57.8165</ele>
        <time>2014-06-07T15:05:44Z</time>
      </trkpt>
      <trkpt lat="60.0196744" lon="17.7583533">
        <ele>56.8551</ele>
        <time>2014-06-07T15:05:45Z</time>
      </trkpt>
      <trkpt lat="60.0196595" lon="17.7584026">
        <ele>56.3745</ele>
        <time>2014-06-07T15:05:46Z</time>
      </trkpt>
      <trkpt lat="60.0196466" lon="17.7584492">
        <ele>55.4131</ele>
        <time>2014-06-07T15:05:47Z</time>
      </trkpt>
      <trkpt lat="60.0196372" lon="17.7584946">
        <ele>54.9324</ele>
        <time>2014-06-07T15:05:48Z</time>
      </trkpt>
      <trkpt lat="60.0196258" lon="17.7585435">
        <ele>54.4518</ele>
        <time>2014-06-07T15:05:49Z</time>
      </trkpt>
      <trkpt lat="60.0196123" lon="17.7585953">
        <ele>54.9324</ele>
        <time>2014-06-07T15:05:50Z</time>
      </trkpt>
      <trkpt lat="60.019602" lon="17.7586371">
        <ele>53.9712</ele>
        <time>2014-06-07T15:05:51Z</time>
      </trkpt>
      <trkpt lat="60.0195972" lon="17.7586826">
        <ele>53.9712</ele>
        <time>2014-06-07T15:05:52Z</time>
      </trkpt>
      <trkpt lat="60.019589" lon="17.7587267">
        <ele>53.4905</ele>
        <time>2014-06-07T15:05:53Z</time>
      </trkpt>
      <trkpt lat="60.0195807" lon="17.7587756">
        <ele>53.0098</ele>
        <time>2014-06-07T15:05:54Z</time>
      </trkpt>
      <trkpt lat="60.0195807" lon="17.7588222">
        <ele>52.5292</ele>
        <time>2014-06-07T15:05:55Z</time>
      </trkpt>
      <trkpt lat="60.0195777" lon="17.7588632">
        <ele>52.5292</ele>
        <time>2014-06-07T15:05:56Z</time>
      </trkpt>
      <trkpt lat="60.0195796" lon="17.7589087">
        <ele>52.5292</ele>
        <time>2014-06-07T15:05:57Z</time>
      </trkpt>
      <trkpt lat="60.0195885" lon="17.7589516">
        <ele>52.5292</ele>
        <time>2014-06-07T15:05:58Z</time>
      </trkpt>
      <trkpt lat="60.0195943" lon="17.7589955">
        <ele>52.5292</ele>
        <time>2014-06-07T15:05:59Z</time>
      </trkpt>
      <trkpt lat="60.0196014" lon="17.7590447">
        <ele>52.5292</ele>
        <time>2014-06-07T15:06:00Z</time>
      </trkpt>
      <trkpt lat="60.0196138" lon="17.7590895">
        <ele>53.0098</ele>
        <time>2014-06-07T15:06:01Z</time>
      </trkpt>
      <trkpt lat="60.0196273" lon="17.7591361">
        <ele>52.5292</ele>
        <time>2014-06-07T15:06:02Z</time>
      </trkpt>
      <trkpt lat="60.019638" lon="17.7591884">
        <ele>52.5292</ele>
        <time>2014-06-07T15:06:03Z</time>
      </trkpt>
      <trkpt lat="60.0196459" lon="17.7592315">
        <ele>52.0486</ele>
        <time>2014-06-07T15:06:04Z</time>
      </trkpt>
      <trkpt lat="60.0196439" lon="17.759291">
        <ele>51.5679</ele>
        <time>2014-06-07T15:06:05Z</time>
      </trkpt>
      <trkpt lat="60.0196408" lon="17.7593509">
        <ele>51.0872</ele>
        <time>2014-06-07T15:06:06Z</time>
      </trkpt>
      <trkpt lat="60.0196297" lon="17.7594089">
        <ele>50.6066</ele>
        <time>2014-06-07T15:06:07Z</time>
      </trkpt>
      <trkpt lat="60.0196191" lon="17.759465">
        <ele>50.126</ele>
        <time>2014-06-07T15:06:08Z</time>
      </trkpt>
      <trkpt lat="60.0196123" lon="17.7595218">
        <ele>49.6453</ele>
        <time>2014-06-07T15:06:09Z</time>
      </trkpt>
      <trkpt lat="60.0196064" lon="17.759577">
        <ele>49.6453</ele>
        <time>2014-06-07T15:06:10Z</time>
      </trkpt>
      <trkpt lat="60.0196009" lon="17.7596272">
        <ele>49.6453</ele>
        <time>2014-06-07T15:06:11Z</time>
      </trkpt>
      <trkpt lat="60.0195942" lon="17.7596816">
        <ele>49.6453</ele>
        <time>2014-06-07T15:06:12Z</time>
      </trkpt>
      <trkpt lat="60.0195873" lon="17.7597366">
        <ele>50.126</ele>
        <time>2014-06-07T15:06:13Z</time>
      </trkpt>
      <trkpt lat="60.0195817" lon="17.759783">
        <ele>49.6453</ele>
        <time>2014-06-07T15:06:14Z</time>
      </trkpt>
      <trkpt lat="60.0195675" lon="17.7598359">
        <ele>49.1646</ele>
        <time>2014-06-07T15:06:15Z</time>
      </trkpt>
      <trkpt lat="60.0195568" lon="17.759896">
        <ele>49.1646</ele>
        <time>2014-06-07T15:06:16Z</time>
      </trkpt>
      <trkpt lat="60.0195486" lon="17.7599495">
        <ele>49.1646</ele>
        <time>2014-06-07T15:06:17Z</time>
      </trkpt>
      <trkpt lat="60.0195418" lon="17.7600007">
        <ele>49.6453</ele>
        <time>2014-06-07T15:06:18Z</time>
      </trkpt>
      <trkpt lat="60.0195409" lon="17.7600406">
        <ele>49.6453</ele>
        <time>2014-06-07T15:06:19Z</time>
      </trkpt>
      <trkpt lat="60.0195382" lon="17.7600901">
        <ele>49.6453</ele>
        <time>2014-06-07T15:06:20Z</time>
      </trkpt>
      <trkpt lat="60.0195402" lon="17.7601493">
        <ele>49.1646</ele>
        <time>2014-06-07T15:06:21Z</time>
      </trkpt>
      <trkpt lat="60.019543" lon="17.7602063">
        <ele>48.684</ele>
        <time>2014-06-07T15:06:22Z</time>
      </trkpt>
      <trkpt lat="60.0195455" lon="17.7602668">
        <ele>48.684</ele>
        <time>2014-06-07T15:06:23Z</time>
      </trkpt>
      <trkpt lat="60.0195474" lon="17.7603301">
        <ele>49.1646</ele>
        <time>2014-06-07T15:06:24Z</time>
      </trkpt>
      <trkpt lat="60.0195377" lon="17.7603731">
        <ele>49.1646</ele>
        <time>2014-06-07T15:06:25Z</time>
      </trkpt>
      <trkpt lat="60.0195205" lon="17.7604156">
        <ele>49.1646</ele>
        <time>2014-06-07T15:06:26Z</time>
      </trkpt>
      <trkpt lat="60.0195004" lon="17.7604482">
        <ele>48.684</ele>
        <time>2014-06-07T15:06:27Z</time>
      </trkpt>
      <trkpt lat="60.0194806" lon="17.7604749">
        <ele>48.684</ele>
        <time>2014-06-07T15:06:28Z</time>
      </trkpt>
      <trkpt lat="60.0194666" lon="17.7605127">
        <ele>48.2034</ele>
        <time>2014-06-07T15:06:29Z</time>
      </trkpt>
      <trkpt lat="60.0194574" lon="17.7605606">
        <ele>48.2034</ele>
        <time>2014-06-07T15:06:30Z</time>
      </trkpt>
      <trkpt lat="60.0194479" lon="17.7606063">
        <ele>48.684</ele>
        <time>2014-06-07T15:06:31Z</time>
      </trkpt>
      <trkpt lat="60.0194402" lon="17.7606461">
        <ele>48.2034</ele>
        <time>2014-06-07T15:06:32Z</time>
      </trkpt>
      <trkpt lat="60.019429" lon="17.760698">
        <ele>48.2034</ele>
        <time>2014-06-07T15:06:33Z</time>
      </trkpt>
      <trkpt lat="60.0194196" lon="17.7607606">
        <ele>47.7225</ele>
        <time>2014-06-07T15:06:34Z</time>
      </trkpt>
      <trkpt lat="60.0194166" lon="17.760809">
        <ele>47.7225</ele>
        <time>2014-06-07T15:06:35Z</time>
      </trkpt>
      <trkpt lat="60.0194096" lon="17.760848">
        <ele>47.7225</ele>
        <time>2014-06-07T15:06:36Z</time>
      </trkpt>
      <trkpt lat="60.0194038" lon="17.7608942">
        <ele>47.7225</ele>
        <time>2014-06-07T15:06:37Z</time>
      </trkpt>
      <trkpt lat="60.0193985" lon="17.7609377">
        <ele>48.684</ele>
        <time>2014-06-07T15:06:38Z</time>
      </trkpt>
      <trkpt lat="60.0193928" lon="17.7609864">
        <ele>48.684</ele>
        <time>2014-06-07T15:06:39Z</time>
      </trkpt>
      <trkpt lat="60.0193868" lon="17.7610364">
        <ele>48.2034</ele>
        <time>2014-06-07T15:06:40Z</time>
      </trkpt>
      <trkpt lat="60.0193821" lon="17.7610943">
        <ele>48.684</ele>
        <time>2014-06-07T15:06:41Z</time>
      </trkpt>
      <trkpt lat="60.0193746" lon="17.7611554">
        <ele>48.684</ele>
        <time>2014-06-07T15:06:42Z</time>
      </trkpt>
      <trkpt lat="60.0193672" lon="17.7612102">
        <ele>48.684</ele>
        <time>2014-06-07T15:06:43Z</time>
      </trkpt>
      <trkpt lat="60.0193578" lon="17.7612644">
        <ele>48.684</ele>
        <time>2014-06-07T15:06:44Z</time>
      </trkpt>
      <trkpt lat="60.0193521" lon="17.7613186">
        <ele>48.684</ele>
        <time>2014-06-07T15:06:45Z</time>
      </trkpt>
      <trkpt lat="60.0193434" lon="17.7613661">
        <ele>49.1646</ele>
        <time>2014-06-07T15:06:46Z</time>
      </trkpt>
      <trkpt lat="60.0193352" lon="17.7614106">
        <ele>49.1646</ele>
        <time>2014-06-07T15:06:47Z</time>
      </trkpt>
      <trkpt lat="60.0193231" lon="17.7614512">
        <ele>49.1646</ele>
        <time>2014-06-07T15:06:48Z</time>
      </trkpt>
      <trkpt lat="60.0193055" lon="17.7615002">
        <ele>49.6453</ele>
        <time>2014-06-07T15:06:49Z</time>
      </trkpt>
      <trkpt lat="60.019294" lon="17.7615495">
        <ele>50.126</ele>
        <time>2014-06-07T15:06:50Z</time>
      </trkpt>
      <trkpt lat="60.0192901" lon="17.7615971">
        <ele>50.126</ele>
        <time>2014-06-07T15:06:51Z</time>
      </trkpt>
      <trkpt lat="60.0192807" lon="17.7616531">
        <ele>51.0872</ele>
        <time>2014-06-07T15:06:52Z</time>
      </trkpt>
      <trkpt lat="60.0192762" lon="17.7617091">
        <ele>51.5679</ele>
        <time>2014-06-07T15:06:53Z</time>
      </trkpt>
      <trkpt lat="60.0192746" lon="17.7617674">
        <ele>52.5292</ele>
        <time>2014-06-07T15:06:54Z</time>
      </trkpt>
      <trkpt lat="60.0192569" lon="17.7618106">
        <ele>52.5292</ele>
        <time>2014-06-07T15:06:55Z</time>
      </trkpt>
      <trkpt lat="60.0192295" lon="17.7618475">
        <ele>53.0098</ele>
        <time>2014-06-07T15:06:56Z</time>
      </trkpt>
      <trkpt lat="60.019208" lon="17.761885">
        <ele>54.4518</ele>
        <time>2014-06-07T15:06:57Z</time>
      </trkpt>
      <trkpt lat="60.0191869" lon="17.761924">
        <ele>55.4131</ele>
        <time>2014-06-07T15:06:58Z</time>
      </trkpt>
      <trkpt lat="60.0191739" lon="17.761973">
        <ele>56.8551</ele>
        <time>2014-06-07T15:06:59Z</time>
      </trkpt>
      <trkpt lat="60.0191559" lon="17.7620326">
        <ele>58.2971</ele>
        <time>2014-06-07T15:07:00Z</time>
      </trkpt>
      <trkpt lat="60.0191388" lon="17.7620707">
        <ele>58.7777</ele>
        <time>2014-06-07T15:07:01Z</time>
      </trkpt>
      <trkpt lat="60.0191358" lon="17.7621184">
        <ele>59.2584</ele>
        <time>2014-06-07T15:07:02Z</time>
      </trkpt>
      <trkpt lat="60.01913" lon="17.762164">
        <ele>59.7391</ele>
        <time>2014-06-07T15:07:03Z</time>
      </trkpt>
      <trkpt lat="60.0191337" lon="17.7622154">
        <ele>59.2584</ele>
        <time>2014-06-07T15:07:04Z</time>
      </trkpt>
      <trkpt lat="60.0191599" lon="17.762282">
        <ele>58.7777</ele>
        <time>2014-06-07T15:07:05Z</time>
      </trkpt>
      <trkpt lat="60.0191764" lon="17.762343">
        <ele>58.2971</ele>
        <time>2014-06-07T15:07:06Z</time>
      </trkpt>
      <trkpt lat="60.0191886" lon="17.762399">
        <ele>57.8165</ele>
        <time>2014-06-07T15:07:07Z</time>
      </trkpt>
      <trkpt lat="60.0191984" lon="17.7624491">
        <ele>57.8165</ele>
        <time>2014-06-07T15:07:08Z</time>
      </trkpt>
      <trkpt lat="60.0192078" lon="17.7625032">
        <ele>57.3358</ele>
        <time>2014-06-07T15:07:09Z</time>
      </trkpt>
      <trkpt lat="60.0192124" lon="17.762556">
        <ele>56.8551</ele>
        <time>2014-06-07T15:07:10Z</time>
      </trkpt>
      <trkpt lat="60.0192144" lon="17.7626119">
        <ele>56.8551</ele>
        <time>2014-06-07T15:07:11Z</time>
      </trkpt>
      <trkpt lat="60.0192039" lon="17.7627021">
        <ele>55.4131</ele>
        <time>2014-06-07T15:07:13Z</time>
      </trkpt>
      <trkpt lat="60.0192015" lon="17.7627378">
        <ele>54.4518</ele>
        <time>2014-06-07T15:07:14Z</time>
      </trkpt>
      <trkpt lat="60.0191967" lon="17.7627751">
        <ele>54.4518</ele>
        <time>2014-06-07T15:07:15Z</time>
      </trkpt>
      <trkpt lat="60.0191858" lon="17.7628181">
        <ele>54.4518</ele>
        <time>2014-06-07T15:07:16Z</time>
      </trkpt>
      <trkpt lat="60.0191704" lon="17.7628652">
        <ele>54.9324</ele>
        <time>2014-06-07T15:07:17Z</time>
      </trkpt>
      <trkpt lat="60.0191585" lon="17.7629081">
        <ele>55.4131</ele>
        <time>2014-06-07T15:07:18Z</time>
      </trkpt>
      <trkpt lat="60.019145" lon="17.762936">
        <ele>55.4131</ele>
        <time>2014-06-07T15:07:19Z</time>
      </trkpt>
      <trkpt lat="60.0191237" lon="17.7629565">
        <ele>54.9324</ele>
        <time>2014-06-07T15:07:20Z</time>
      </trkpt>
      <trkpt lat="60.0191057" lon="17.7629917">
        <ele>54.9324</ele>
        <time>2014-06-07T15:07:21Z</time>
      </trkpt>
      <trkpt lat="60.0190904" lon="17.7630381">
        <ele>55.8938</ele>
        <time>2014-06-07T15:07:22Z</time>
      </trkpt>
      <trkpt lat="60.0190697" lon="17.7630672">
        <ele>56.3745</ele>
        <time>2014-06-07T15:07:23Z</time>
      </trkpt>
      <trkpt lat="60.019049" lon="17.7630977">
        <ele>56.8551</ele>
        <time>2014-06-07T15:07:24Z</time>
      </trkpt>
      <trkpt lat="60.0190265" lon="17.7631305">
        <ele>56.8551</ele>
        <time>2014-06-07T15:07:25Z</time>
      </trkpt>
      <trkpt lat="60.019006" lon="17.7631562">
        <ele>56.3745</ele>
        <time>2014-06-07T15:07:26Z</time>
      </trkpt>
      <trkpt lat="60.0189895" lon="17.7631867">
        <ele>56.3745</ele>
        <time>2014-06-07T15:07:27Z</time>
      </trkpt>
      <trkpt lat="60.0189739" lon="17.7632259">
        <ele>57.3358</ele>
        <time>2014-06-07T15:07:28Z</time>
      </trkpt>
      <trkpt lat="60.0189617" lon="17.7632701">
        <ele>57.8165</ele>
        <time>2014-06-07T15:07:29Z</time>
      </trkpt>
      <trkpt lat="60.0189539" lon="17.7633215">
        <ele>59.7391</ele>
        <time>2014-06-07T15:07:30Z</time>
      </trkpt>
      <trkpt lat="60.0189477" lon="17.7633615">
        <ele>60.7003</ele>
        <time>2014-06-07T15:07:31Z</time>
      </trkpt>
      <trkpt lat="60.0189459" lon="17.7634004">
        <ele>61.6617</ele>
        <time>2014-06-07T15:07:32Z</time>
      </trkpt>
      <trkpt lat="60.0189381" lon="17.7634343">
        <ele>62.1423</ele>
        <time>2014-06-07T15:07:33Z</time>
      </trkpt>
      <trkpt lat="60.0189275" lon="17.7634666">
        <ele>63.1036</ele>
        <time>2014-06-07T15:07:34Z</time>
      </trkpt>
      <trkpt lat="60.0189114" lon="17.7634998">
        <ele>63.1036</ele>
        <time>2014-06-07T15:07:35Z</time>
      </trkpt>
      <trkpt lat="60.0188995" lon="17.7635341">
        <ele>64.5457</ele>
        <time>2014-06-07T15:07:36Z</time>
      </trkpt>
      <trkpt lat="60.018887" lon="17.7635619">
        <ele>64.5457</ele>
        <time>2014-06-07T15:07:37Z</time>
      </trkpt>
      <trkpt lat="60.0188722" lon="17.7635952">
        <ele>65.5071</ele>
        <time>2014-06-07T15:07:38Z</time>
      </trkpt>
      <trkpt lat="60.0188566" lon="17.7636261">
        <ele>65.9877</ele>
        <time>2014-06-07T15:07:39Z</time>
      </trkpt>
      <trkpt lat="60.0188439" lon="17.7636633">
        <ele>66.4683</ele>
        <time>2014-06-07T15:07:40Z</time>
      </trkpt>
      <trkpt lat="60.0188279" lon="17.7636933">
        <ele>66.949</ele>
        <time>2014-06-07T15:07:41Z</time>
      </trkpt>
      <trkpt lat="60.0188088" lon="17.7637294">
        <ele>66.949</ele>
        <time>2014-06-07T15:07:42Z</time>
      </trkpt>
      <trkpt lat="60.0187933" lon="17.7637853">
        <ele>68.3909</ele>
        <time>2014-06-07T15:07:43Z</time>
      </trkpt>
      <trkpt lat="60.0187777" lon="17.7638309">
        <ele>68.8716</ele>
        <time>2014-06-07T15:07:44Z</time>
      </trkpt>
      <trkpt lat="60.0187612" lon="17.763869">
        <ele>69.3523</ele>
        <time>2014-06-07T15:07:45Z</time>
      </trkpt>
      <trkpt lat="60.0187451" lon="17.7638988">
        <ele>69.3523</ele>
        <time>2014-06-07T15:07:46Z</time>
      </trkpt>
      <trkpt lat="60.0187234" lon="17.7639126">
        <ele>69.3523</ele>
        <time>2014-06-07T15:07:47Z</time>
      </trkpt>
      <trkpt lat="60.0186996" lon="17.7639308">
        <ele>69.3523</ele>
        <time>2014-06-07T15:07:48Z</time>
      </trkpt>
      <trkpt lat="60.0186747" lon="17.7639453">
        <ele>69.8329</ele>
        <time>2014-06-07T15:07:49Z</time>
      </trkpt>
      <trkpt lat="60.0186467" lon="17.7639394">
        <ele>69.3523</ele>
        <time>2014-06-07T15:07:50Z</time>
      </trkpt>
      <trkpt lat="60.0186171" lon="17.7639365">
        <ele>68.3909</ele>
        <time>2014-06-07T15:07:51Z</time>
      </trkpt>
      <trkpt lat="60.0185923" lon="17.7639461">
        <ele>69.3523</ele>
        <time>2014-06-07T15:07:52Z</time>
      </trkpt>
      <trkpt lat="60.0185705" lon="17.7639435">
        <ele>70.3135</ele>
        <time>2014-06-07T15:07:53Z</time>
      </trkpt>
      <trkpt lat="60.0185446" lon="17.7639247">
        <ele>69.8329</ele>
        <time>2014-06-07T15:07:54Z</time>
      </trkpt>
      <trkpt lat="60.0185215" lon="17.7639158">
        <ele>68.8716</ele>
        <time>2014-06-07T15:07:55Z</time>
      </trkpt>
      <trkpt lat="60.0184995" lon="17.763901">
        <ele>67.9103</ele>
        <time>2014-06-07T15:07:56Z</time>
      </trkpt>
      <trkpt lat="60.0184762" lon="17.7638866">
        <ele>66.4683</ele>
        <time>2014-06-07T15:07:57Z</time>
      </trkpt>
      <trkpt lat="60.018455" lon="17.7638759">
        <ele>65.9877</ele>
        <time>2014-06-07T15:07:58Z</time>
      </trkpt>
      <trkpt lat="60.0184296" lon="17.7638509">
        <ele>64.5457</ele>
        <time>2014-06-07T15:07:59Z</time>
      </trkpt>
      <trkpt lat="60.0184017" lon="17.7638245">
        <ele>64.0651</ele>
        <time>2014-06-07T15:08:00Z</time>
      </trkpt>
      <trkpt lat="60.0183841" lon="17.7637929">
        <ele>63.5844</ele>
        <time>2014-06-07T15:08:01Z</time>
      </trkpt>
      <trkpt lat="60.0183627" lon="17.7637598">
        <ele>62.6229</ele>
        <time>2014-06-07T15:08:02Z</time>
      </trkpt>
      <trkpt lat="60.0183386" lon="17.7637324">
        <ele>61.6617</ele>
        <time>2014-06-07T15:08:03Z</time>
      </trkpt>
      <trkpt lat="60.0183126" lon="17.7636946">
        <ele>60.7003</ele>
        <time>2014-06-07T15:08:04Z</time>
      </trkpt>
      <trkpt lat="60.0182861" lon="17.7636578">
        <ele>60.7003</ele>
        <time>2014-06-07T15:08:05Z</time>
      </trkpt>
      <trkpt lat="60.0182668" lon="17.7636313">
        <ele>60.2197</ele>
        <time>2014-06-07T15:08:06Z</time>
      </trkpt>
      <trkpt lat="60.0182477" lon="17.7636029">
        <ele>60.2197</ele>
        <time>2014-06-07T15:08:07Z</time>
      </trkpt>
      <trkpt lat="60.0182298" lon="17.7635707">
        <ele>60.2197</ele>
        <time>2014-06-07T15:08:08Z</time>
      </trkpt>
      <trkpt lat="60.0182122" lon="17.7635455">
        <ele>59.7391</ele>
        <time>2014-06-07T15:08:09Z</time>
      </trkpt>
      <trkpt lat="60.0181944" lon="17.7635324">
        <ele>59.7391</ele>
        <time>2014-06-07T15:08:10Z</time>
      </trkpt>
      <trkpt lat="60.0181768" lon="17.7635272">
        <ele>59.7391</ele>
        <time>2014-06-07T15:08:11Z</time>
      </trkpt>
      <trkpt lat="60.0181567" lon="17.7635122">
        <ele>59.2584</ele>
        <time>2014-06-07T15:08:12Z</time>
      </trkpt>
      <trkpt lat="60.0181342" lon="17.7634853">
        <ele>58.7777</ele>
        <time>2014-06-07T15:08:13Z</time>
      </trkpt>
      <trkpt lat="60.0181138" lon="17.7634664">
        <ele>58.7777</ele>
        <time>2014-06-07T15:08:14Z</time>
      </trkpt>
      <trkpt lat="60.0180966" lon="17.7634382">
        <ele>58.7777</ele>
        <time>2014-06-07T15:08:15Z</time>
      </trkpt>
      <trkpt lat="60.0180826" lon="17.7634117">
        <ele>58.2971</ele>
        <time>2014-06-07T15:08:16Z</time>
      </trkpt>
      <trkpt lat="60.0180648" lon="17.7633696">
        <ele>57.8165</ele>
        <time>2014-06-07T15:08:17Z</time>
      </trkpt>
      <trkpt lat="60.0180514" lon="17.7633189">
        <ele>57.3358</ele>
        <time>2014-06-07T15:08:18Z</time>
      </trkpt>
      <trkpt lat="60.018036" lon="17.7632641">
        <ele>56.8551</ele>
        <time>2014-06-07T15:08:19Z</time>
      </trkpt>
      <trkpt lat="60.0180229" lon="17.7632081">
        <ele>56.3745</ele>
        <time>2014-06-07T15:08:20Z</time>
      </trkpt>
      <trkpt lat="60.018009" lon="17.7631593">
        <ele>56.3745</ele>
        <time>2014-06-07T15:08:21Z</time>
      </trkpt>
      <trkpt lat="60.0179944" lon="17.7631154">
        <ele>56.3745</ele>
        <time>2014-06-07T15:08:22Z</time>
      </trkpt>
      <trkpt lat="60.0179826" lon="17.7630705">
        <ele>56.8551</ele>
        <time>2014-06-07T15:08:23Z</time>
      </trkpt>
      <trkpt lat="60.0179671" lon="17.7630143">
        <ele>56.8551</ele>
        <time>2014-06-07T15:08:24Z</time>
      </trkpt>
      <trkpt lat="60.0179557" lon="17.7629631">
        <ele>56.8551</ele>
        <time>2014-06-07T15:08:25Z</time>
      </trkpt>
      <trkpt lat="60.0179457" lon="17.7629092">
        <ele>56.3745</ele>
        <time>2014-06-07T15:08:26Z</time>
      </trkpt>
      <trkpt lat="60.0179381" lon="17.7628601">
        <ele>56.3745</ele>
        <time>2014-06-07T15:08:27Z</time>
      </trkpt>
      <trkpt lat="60.0179294" lon="17.7628134">
        <ele>55.8938</ele>
        <time>2014-06-07T15:08:28Z</time>
      </trkpt>
      <trkpt lat="60.0179203" lon="17.7627725">
        <ele>55.4131</ele>
        <time>2014-06-07T15:08:29Z</time>
      </trkpt>
      <trkpt lat="60.0179092" lon="17.762728">
        <ele>55.4131</ele>
        <time>2014-06-07T15:08:30Z</time>
      </trkpt>
      <trkpt lat="60.0178985" lon="17.7626793">
        <ele>55.4131</ele>
        <time>2014-06-07T15:08:31Z</time>
      </trkpt>
      <trkpt lat="60.0178909" lon="17.7626454">
        <ele>55.4131</ele>
        <time>2014-06-07T15:08:32Z</time>
      </trkpt>
      <trkpt lat="60.0178743" lon="17.7626066">
        <ele>54.9324</ele>
        <time>2014-06-07T15:08:33Z</time>
      </trkpt>
      <trkpt lat="60.0178593" lon="17.7625623">
        <ele>55.4131</ele>
        <time>2014-06-07T15:08:34Z</time>
      </trkpt>
      <trkpt lat="60.0178438" lon="17.7625197">
        <ele>54.9324</ele>
        <time>2014-06-07T15:08:35Z</time>
      </trkpt>
      <trkpt lat="60.0178286" lon="17.7624762">
        <ele>54.9324</ele>
        <time>2014-06-07T15:08:36Z</time>
      </trkpt>
      <trkpt lat="60.0178147" lon="17.7624321">
        <ele>54.4518</ele>
        <time>2014-06-07T15:08:37Z</time>
      </trkpt>
      <trkpt lat="60.0178001" lon="17.7623895">
        <ele>54.4518</ele>
        <time>2014-06-07T15:08:38Z</time>
      </trkpt>
      <trkpt lat="60.0177871" lon="17.7623472">
        <ele>54.4518</ele>
        <time>2014-06-07T15:08:39Z</time>
      </trkpt>
      <trkpt lat="60.0177778" lon="17.7623128">
        <ele>54.4518</ele>
        <time>2014-06-07T15:08:40Z</time>
      </trkpt>
      <trkpt lat="60.0177685" lon="17.7622799">
        <ele>53.9712</ele>
        <time>2014-06-07T15:08:41Z</time>
      </trkpt>
      <trkpt lat="60.0177524" lon="17.7622391">
        <ele>53.9712</ele>
        <time>2014-06-07T15:08:42Z</time>
      </trkpt>
      <trkpt lat="60.0177304" lon="17.7621908">
        <ele>53.9712</ele>
        <time>2014-06-07T15:08:43Z</time>
      </trkpt>
      <trkpt lat="60.0177133" lon="17.7621457">
        <ele>53.9712</ele>
        <time>2014-06-07T15:08:44Z</time>
      </trkpt>
      <trkpt lat="60.0176955" lon="17.7621031">
        <ele>54.4518</ele>
        <time>2014-06-07T15:08:45Z</time>
      </trkpt>
      <trkpt lat="60.017676" lon="17.7620701">
        <ele>54.9324</ele>
        <time>2014-06-07T15:08:46Z</time>
      </trkpt>
      <trkpt lat="60.0176584" lon="17.7620472">
        <ele>54.9324</ele>
        <time>2014-06-07T15:08:47Z</time>
      </trkpt>
      <trkpt lat="60.01764" lon="17.7620119">
        <ele>54.9324</ele>
        <time>2014-06-07T15:08:48Z</time>
      </trkpt>
      <trkpt lat="60.0176229" lon="17.7619689">
        <ele>54.4518</ele>
        <time>2014-06-07T15:08:49Z</time>
      </trkpt>
      <trkpt lat="60.0176051" lon="17.7619243">
        <ele>53.9712</ele>
        <time>2014-06-07T15:08:50Z</time>
      </trkpt>
      <trkpt lat="60.0175875" lon="17.7618929">
        <ele>53.9712</ele>
        <time>2014-06-07T15:08:51Z</time>
      </trkpt>
      <trkpt lat="60.0175685" lon="17.7618596">
        <ele>53.9712</ele>
        <time>2014-06-07T15:08:52Z</time>
      </trkpt>
      <trkpt lat="60.0175489" lon="17.7618339">
        <ele>53.9712</ele>
        <time>2014-06-07T15:08:53Z</time>
      </trkpt>
      <trkpt lat="60.0175262" lon="17.76181">
        <ele>53.9712</ele>
        <time>2014-06-07T15:08:54Z</time>
      </trkpt>
      <trkpt lat="60.0175071" lon="17.7617814">
        <ele>53.9712</ele>
        <time>2014-06-07T15:08:55Z</time>
      </trkpt>
      <trkpt lat="60.0174957" lon="17.761762">
        <ele>54.4518</ele>
        <time>2014-06-07T15:08:56Z</time>
      </trkpt>
      <trkpt lat="60.0174839" lon="17.7617488">
        <ele>54.9324</ele>
        <time>2014-06-07T15:08:57Z</time>
      </trkpt>
      <trkpt lat="60.0174734" lon="17.76174">
        <ele>55.4131</ele>
        <time>2014-06-07T15:08:58Z</time>
      </trkpt>
      <trkpt lat="60.0174511" lon="17.7617146">
        <ele>55.4131</ele>
        <time>2014-06-07T15:08:59Z</time>
      </trkpt>
      <trkpt lat="60.0174276" lon="17.7616905">
        <ele>55.4131</ele>
        <time>2014-06-07T15:09:00Z</time>
      </trkpt>
      <trkpt lat="60.0174051" lon="17.7616617">
        <ele>55.8938</ele>
        <time>2014-06-07T15:09:01Z</time>
      </trkpt>
      <trkpt lat="60.0173816" lon="17.7616314">
        <ele>55.4131</ele>
        <time>2014-06-07T15:09:02Z</time>
      </trkpt>
      <trkpt lat="60.0173588" lon="17.7616049">
        <ele>54.9324</ele>
        <time>2014-06-07T15:09:03Z</time>
      </trkpt>
      <trkpt lat="60.0173361" lon="17.7615796">
        <ele>55.4131</ele>
        <time>2014-06-07T15:09:04Z</time>
      </trkpt>
      <trkpt lat="60.017318" lon="17.7615521">
        <ele>54.9324</ele>
        <time>2014-06-07T15:09:05Z</time>
      </trkpt>
      <trkpt lat="60.0172986" lon="17.7615162">
        <ele>54.4518</ele>
        <time>2014-06-07T15:09:06Z</time>
      </trkpt>
      <trkpt lat="60.0172831" lon="17.7614942">
        <ele>54.4518</ele>
        <time>2014-06-07T15:09:07Z</time>
      </trkpt>
      <trkpt lat="60.0172668" lon="17.7614593">
        <ele>54.4518</ele>
        <time>2014-06-07T15:09:08Z</time>
      </trkpt>
      <trkpt lat="60.0172517" lon="17.7614133">
        <ele>54.4518</ele>
        <time>2014-06-07T15:09:09Z</time>
      </trkpt>
      <trkpt lat="60.0172388" lon="17.7613776">
        <ele>53.9712</ele>
        <time>2014-06-07T15:09:10Z</time>
      </trkpt>
      <trkpt lat="60.0172274" lon="17.7613387">
        <ele>54.4518</ele>
        <time>2014-06-07T15:09:11Z</time>
      </trkpt>
      <trkpt lat="60.0172109" lon="17.7612941">
        <ele>53.9712</ele>
        <time>2014-06-07T15:09:12Z</time>
      </trkpt>
      <trkpt lat="60.0171946" lon="17.7612444">
        <ele>53.4905</ele>
        <time>2014-06-07T15:09:13Z</time>
      </trkpt>
      <trkpt lat="60.0171802" lon="17.76119">
        <ele>53.0098</ele>
        <time>2014-06-07T15:09:14Z</time>
      </trkpt>
      <trkpt lat="60.01717" lon="17.7611369">
        <ele>53.0098</ele>
        <time>2014-06-07T15:09:15Z</time>
      </trkpt>
      <trkpt lat="60.017159" lon="17.7610921">
        <ele>53.4905</ele>
        <time>2014-06-07T15:09:16Z</time>
      </trkpt>
      <trkpt lat="60.0171502" lon="17.7610475">
        <ele>53.4905</ele>
        <time>2014-06-07T15:09:17Z</time>
      </trkpt>
      <trkpt lat="60.0171404" lon="17.7609958">
        <ele>53.4905</ele>
        <time>2014-06-07T15:09:18Z</time>
      </trkpt>
      <trkpt lat="60.0171222" lon="17.760936">
        <ele>53.4905</ele>
        <time>2014-06-07T15:09:19Z</time>
      </trkpt>
      <trkpt lat="60.0171039" lon="17.7608774">
        <ele>54.4518</ele>
        <time>2014-06-07T15:09:20Z</time>
      </trkpt>
      <trkpt lat="60.0170881" lon="17.760823">
        <ele>54.9324</ele>
        <time>2014-06-07T15:09:21Z</time>
      </trkpt>
      <trkpt lat="60.0170647" lon="17.7607627">
        <ele>55.8938</ele>
        <time>2014-06-07T15:09:22Z</time>
      </trkpt>
      <trkpt lat="60.0170429" lon="17.7607114">
        <ele>56.8551</ele>
        <time>2014-06-07T15:09:23Z</time>
      </trkpt>
      <trkpt lat="60.0170236" lon="17.7606672">
        <ele>57.8165</ele>
        <time>2014-06-07T15:09:24Z</time>
      </trkpt>
      <trkpt lat="60.0170104" lon="17.7606249">
        <ele>58.7777</ele>
        <time>2014-06-07T15:09:25Z</time>
      </trkpt>
      <trkpt lat="60.0169958" lon="17.7605856">
        <ele>59.7391</ele>
        <time>2014-06-07T15:09:26Z</time>
      </trkpt>
      <trkpt lat="60.0169828" lon="17.7605399">
        <ele>60.2197</ele>
        <time>2014-06-07T15:09:27Z</time>
      </trkpt>
      <trkpt lat="60.0169658" lon="17.7604886">
        <ele>60.7003</ele>
        <time>2014-06-07T15:09:28Z</time>
      </trkpt>
      <trkpt lat="60.0169503" lon="17.7604434">
        <ele>60.7003</ele>
        <time>2014-06-07T15:09:29Z</time>
      </trkpt>
      <trkpt lat="60.0169358" lon="17.760403">
        <ele>60.7003</ele>
        <time>2014-06-07T15:09:30Z</time>
      </trkpt>
      <trkpt lat="60.0169236" lon="17.7603627">
        <ele>60.2197</ele>
        <time>2014-06-07T15:09:31Z</time>
      </trkpt>
      <trkpt lat="60.0169221" lon="17.7603261">
        <ele>60.2197</ele>
        <time>2014-06-07T15:09:32Z</time>
      </trkpt>
      <trkpt lat="60.0169203" lon="17.7602859">
        <ele>59.7391</ele>
        <time>2014-06-07T15:09:33Z</time>
      </trkpt>
      <trkpt lat="60.0169159" lon="17.7602301">
        <ele>59.7391</ele>
        <time>2014-06-07T15:09:34Z</time>
      </trkpt>
      <trkpt lat="60.0169172" lon="17.7601795">
        <ele>59.2584</ele>
        <time>2014-06-07T15:09:35Z</time>
      </trkpt>
      <trkpt lat="60.016912" lon="17.7601227">
        <ele>59.7391</ele>
        <time>2014-06-07T15:09:36Z</time>
      </trkpt>
      <trkpt lat="60.0169042" lon="17.7600707">
        <ele>59.7391</ele>
        <time>2014-06-07T15:09:37Z</time>
      </trkpt>
      <trkpt lat="60.0168957" lon="17.7600167">
        <ele>59.7391</ele>
        <time>2014-06-07T15:09:38Z</time>
      </trkpt>
      <trkpt lat="60.016889" lon="17.7599609">
        <ele>59.7391</ele>
        <time>2014-06-07T15:09:39Z</time>
      </trkpt>
      <trkpt lat="60.0168812" lon="17.7598934">
        <ele>59.2584</ele>
        <time>2014-06-07T15:09:40Z</time>
      </trkpt>
      <trkpt lat="60.0168736" lon="17.7598296">
        <ele>59.2584</ele>
        <time>2014-06-07T15:09:41Z</time>
      </trkpt>
      <trkpt lat="60.0168684" lon="17.7597712">
        <ele>58.2971</ele>
        <time>2014-06-07T15:09:42Z</time>
      </trkpt>
      <trkpt lat="60.0168637" lon="17.7597137">
        <ele>58.2971</ele>
        <time>2014-06-07T15:09:43Z</time>
      </trkpt>
      <trkpt lat="60.0168625" lon="17.7596617">
        <ele>58.2971</ele>
        <time>2014-06-07T15:09:44Z</time>
      </trkpt>
      <trkpt lat="60.016862" lon="17.7596133">
        <ele>58.2971</ele>
        <time>2014-06-07T15:09:45Z</time>
      </trkpt>
      <trkpt lat="60.0168605" lon="17.7595513">
        <ele>59.2584</ele>
        <time>2014-06-07T15:09:46Z</time>
      </trkpt>
      <trkpt lat="60.0168554" lon="17.7594902">
        <ele>59.7391</ele>
        <time>2014-06-07T15:09:47Z</time>
      </trkpt>
      <trkpt lat="60.0168513" lon="17.7594322">
        <ele>60.7003</ele>
        <time>2014-06-07T15:09:48Z</time>
      </trkpt>
      <trkpt lat="60.0168456" lon="17.7593795">
        <ele>61.6617</ele>
        <time>2014-06-07T15:09:49Z</time>
      </trkpt>
      <trkpt lat="60.0168388" lon="17.759333">
        <ele>61.181</ele>
        <time>2014-06-07T15:09:50Z</time>
      </trkpt>
      <trkpt lat="60.0168368" lon="17.7592894">
        <ele>60.7003</ele>
        <time>2014-06-07T15:09:51Z</time>
      </trkpt>
      <trkpt lat="60.0168328" lon="17.7592463">
        <ele>60.2197</ele>
        <time>2014-06-07T15:09:52Z</time>
      </trkpt>
      <trkpt lat="60.016829" lon="17.7592023">
        <ele>60.2197</ele>
        <time>2014-06-07T15:09:53Z</time>
      </trkpt>
      <trkpt lat="60.0168202" lon="17.7591547">
        <ele>59.7391</ele>
        <time>2014-06-07T15:09:54Z</time>
      </trkpt>
      <trkpt lat="60.0168077" lon="17.7590986">
        <ele>59.7391</ele>
        <time>2014-06-07T15:09:55Z</time>
      </trkpt>
      <trkpt lat="60.0167968" lon="17.7590561">
        <ele>58.7777</ele>
        <time>2014-06-07T15:09:56Z</time>
      </trkpt>
      <trkpt lat="60.0167957" lon="17.7590098">
        <ele>58.7777</ele>
        <time>2014-06-07T15:09:57Z</time>
      </trkpt>
      <trkpt lat="60.0167869" lon="17.7589563">
        <ele>58.2971</ele>
        <time>2014-06-07T15:09:58Z</time>
      </trkpt>
      <trkpt lat="60.016782" lon="17.7589088">
        <ele>58.2971</ele>
        <time>2014-06-07T15:09:59Z</time>
      </trkpt>
      <trkpt lat="60.0167886" lon="17.75886">
        <ele>58.7777</ele>
        <time>2014-06-07T15:10:00Z</time>
      </trkpt>
      <trkpt lat="60.0168043" lon="17.7588128">
        <ele>58.7777</ele>
        <time>2014-06-07T15:10:01Z</time>
      </trkpt>
      <trkpt lat="60.0168092" lon="17.7587731">
        <ele>58.7777</ele>
        <time>2014-06-07T15:10:02Z</time>
      </trkpt>
      <trkpt lat="60.0168181" lon="17.7587398">
        <ele>58.2971</ele>
        <time>2014-06-07T15:10:03Z</time>
      </trkpt>
      <trkpt lat="60.0168226" lon="17.7587014">
        <ele>57.3358</ele>
        <time>2014-06-07T15:10:04Z</time>
      </trkpt>
      <trkpt lat="60.0168232" lon="17.7586485">
        <ele>57.8165</ele>
        <time>2014-06-07T15:10:05Z</time>
      </trkpt>
      <trkpt lat="60.0168197" lon="17.7586045">
        <ele>57.3358</ele>
        <time>2014-06-07T15:10:06Z</time>
      </trkpt>
      <trkpt lat="60.0168135" lon="17.7585548">
        <ele>56.8551</ele>
        <time>2014-06-07T15:10:07Z</time>
      </trkpt>
      <trkpt lat="60.0168088" lon="17.7585004">
        <ele>56.3745</ele>
        <time>2014-06-07T15:10:08Z</time>
      </trkpt>
      <trkpt lat="60.0168021" lon="17.7584501">
        <ele>55.8938</ele>
        <time>2014-06-07T15:10:09Z</time>
      </trkpt>
      <trkpt lat="60.0167617" lon="17.7583609">
        <ele>56.3745</ele>
        <time>2014-06-07T15:10:11Z</time>
      </trkpt>
      <trkpt lat="60.0167362" lon="17.7583187">
        <ele>57.3358</ele>
        <time>2014-06-07T15:10:12Z</time>
      </trkpt>
      <trkpt lat="60.0167107" lon="17.7582881">
        <ele>56.8551</ele>
        <time>2014-06-07T15:10:13Z</time>
      </trkpt>
      <trkpt lat="60.0166792" lon="17.7582575">
        <ele>57.3358</ele>
        <time>2014-06-07T15:10:14Z</time>
      </trkpt>
      <trkpt lat="60.0166446" lon="17.7582398">
        <ele>57.8165</ele>
        <time>2014-06-07T15:10:15Z</time>
      </trkpt>
      <trkpt lat="60.0166165" lon="17.7582332">
        <ele>58.2971</ele>
        <time>2014-06-07T15:10:16Z</time>
      </trkpt>
      <trkpt lat="60.0165928" lon="17.7582394">
        <ele>58.2971</ele>
        <time>2014-06-07T15:10:17Z</time>
      </trkpt>
      <trkpt lat="60.0165615" lon="17.7582519">
        <ele>58.7777</ele>
        <time>2014-06-07T15:10:18Z</time>
      </trkpt>
      <trkpt lat="60.0165341" lon="17.7582695">
        <ele>59.2584</ele>
        <time>2014-06-07T15:10:19Z</time>
      </trkpt>
      <trkpt lat="60.0165068" lon="17.7582877">
        <ele>59.2584</ele>
        <time>2014-06-07T15:10:20Z</time>
      </trkpt>
      <trkpt lat="60.0164834" lon="17.7582974">
        <ele>60.2197</ele>
        <time>2014-06-07T15:10:21Z</time>
      </trkpt>
      <trkpt lat="60.0164581" lon="17.7582846">
        <ele>61.181</ele>
        <time>2014-06-07T15:10:22Z</time>
      </trkpt>
      <trkpt lat="60.0164379" lon="17.7582716">
        <ele>61.6617</ele>
        <time>2014-06-07T15:10:23Z</time>
      </trkpt>
      <trkpt lat="60.0164178" lon="17.7582631">
        <ele>61.6617</ele>
        <time>2014-06-07T15:10:24Z</time>
      </trkpt>
      <trkpt lat="60.0164002" lon="17.7582322">
        <ele>61.181</ele>
        <time>2014-06-07T15:10:25Z</time>
      </trkpt>
      <trkpt lat="60.0163877" lon="17.7582032">
        <ele>60.7003</ele>
        <time>2014-06-07T15:10:26Z</time>
      </trkpt>
      <trkpt lat="60.0163747" lon="17.7581643">
        <ele>60.2197</ele>
        <time>2014-06-07T15:10:27Z</time>
      </trkpt>
      <trkpt lat="60.0163544" lon="17.7581146">
        <ele>59.7391</ele>
        <time>2014-06-07T15:10:28Z</time>
      </trkpt>
      <trkpt lat="60.0163405" lon="17.7580706">
        <ele>59.7391</ele>
        <time>2014-06-07T15:10:29Z</time>
      </trkpt>
      <trkpt lat="60.0163282" lon="17.7580292">
        <ele>58.7777</ele>
        <time>2014-06-07T15:10:30Z</time>
      </trkpt>
      <trkpt lat="60.016307" lon="17.7579633">
        <ele>59.2584</ele>
        <time>2014-06-07T15:10:31Z</time>
      </trkpt>
      <trkpt lat="60.0162878" lon="17.7579044">
        <ele>58.7777</ele>
        <time>2014-06-07T15:10:32Z</time>
      </trkpt>
      <trkpt lat="60.0162829" lon="17.7578671">
        <ele>57.8165</ele>
        <time>2014-06-07T15:10:33Z</time>
      </trkpt>
      <trkpt lat="60.0162836" lon="17.7578241">
        <ele>57.3358</ele>
        <time>2014-06-07T15:10:34Z</time>
      </trkpt>
      <trkpt lat="60.016282" lon="17.7577757">
        <ele>57.3358</ele>
        <time>2014-06-07T15:10:35Z</time>
      </trkpt>
      <trkpt lat="60.01628" lon="17.7577274">
        <ele>56.3745</ele>
        <time>2014-06-07T15:10:36Z</time>
      </trkpt>
      <trkpt lat="60.0162799" lon="17.7576797">
        <ele>56.3745</ele>
        <time>2014-06-07T15:10:37Z</time>
      </trkpt>
      <trkpt lat="60.0162725" lon="17.7576321">
        <ele>56.8551</ele>
        <time>2014-06-07T15:10:38Z</time>
      </trkpt>
      <trkpt lat="60.0162575" lon="17.7575768">
        <ele>57.3358</ele>
        <time>2014-06-07T15:10:39Z</time>
      </trkpt>
      <trkpt lat="60.0162597" lon="17.7575251">
        <ele>57.8165</ele>
        <time>2014-06-07T15:10:40Z</time>
      </trkpt>
      <trkpt lat="60.0162629" lon="17.7574769">
        <ele>57.3358</ele>
        <time>2014-06-07T15:10:41Z</time>
      </trkpt>
      <trkpt lat="60.0162619" lon="17.7574364">
        <ele>56.3745</ele>
        <time>2014-06-07T15:10:42Z</time>
      </trkpt>
      <trkpt lat="60.016257" lon="17.7573904">
        <ele>55.8938</ele>
        <time>2014-06-07T15:10:43Z</time>
      </trkpt>
      <trkpt lat="60.0162479" lon="17.7573432">
        <ele>55.4131</ele>
        <time>2014-06-07T15:10:44Z</time>
      </trkpt>
      <trkpt lat="60.0162443" lon="17.7572977">
        <ele>54.9324</ele>
        <time>2014-06-07T15:10:45Z</time>
      </trkpt>
      <trkpt lat="60.0162446" lon="17.757255">
        <ele>54.4518</ele>
        <time>2014-06-07T15:10:46Z</time>
      </trkpt>
      <trkpt lat="60.016239" lon="17.7572128">
        <ele>54.4518</ele>
        <time>2014-06-07T15:10:47Z</time>
      </trkpt>
      <trkpt lat="60.0162312" lon="17.7571736">
        <ele>53.9712</ele>
        <time>2014-06-07T15:10:48Z</time>
      </trkpt>
      <trkpt lat="60.0162281" lon="17.7571353">
        <ele>53.0098</ele>
        <time>2014-06-07T15:10:49Z</time>
      </trkpt>
      <trkpt lat="60.0162229" lon="17.7570879">
        <ele>52.5292</ele>
        <time>2014-06-07T15:10:50Z</time>
      </trkpt>
      <trkpt lat="60.0162044" lon="17.7570371">
        <ele>52.5292</ele>
        <time>2014-06-07T15:10:51Z</time>
      </trkpt>
      <trkpt lat="60.0161922" lon="17.7569915">
        <ele>51.5679</ele>
        <time>2014-06-07T15:10:52Z</time>
      </trkpt>
      <trkpt lat="60.0161835" lon="17.7569411">
        <ele>52.0486</ele>
        <time>2014-06-07T15:10:53Z</time>
      </trkpt>
      <trkpt lat="60.01618" lon="17.7568885">
        <ele>51.5679</ele>
        <time>2014-06-07T15:10:54Z</time>
      </trkpt>
      <trkpt lat="60.0161903" lon="17.7568366">
        <ele>51.5679</ele>
        <time>2014-06-07T15:10:55Z</time>
      </trkpt>
      <trkpt lat="60.0161965" lon="17.7567812">
        <ele>51.5679</ele>
        <time>2014-06-07T15:10:56Z</time>
      </trkpt>
      <trkpt lat="60.0161929" lon="17.7567355">
        <ele>51.0872</ele>
        <time>2014-06-07T15:10:57Z</time>
      </trkpt>
      <trkpt lat="60.0161875" lon="17.7566849">
        <ele>51.0872</ele>
        <time>2014-06-07T15:10:58Z</time>
      </trkpt>
      <trkpt lat="60.0161831" lon="17.7566362">
        <ele>51.0872</ele>
        <time>2014-06-07T15:10:59Z</time>
      </trkpt>
      <trkpt lat="60.0161785" lon="17.756589">
        <ele>51.0872</ele>
        <time>2014-06-07T15:11:00Z</time>
      </trkpt>
      <trkpt lat="60.0161779" lon="17.7565377">
        <ele>51.0872</ele>
        <time>2014-06-07T15:11:01Z</time>
      </trkpt>
      <trkpt lat="60.0161766" lon="17.7564816">
        <ele>51.5679</ele>
        <time>2014-06-07T15:11:02Z</time>
      </trkpt>
      <trkpt lat="60.0161681" lon="17.7564347">
        <ele>51.5679</ele>
        <time>2014-06-07T15:11:03Z</time>
      </trkpt>
      <trkpt lat="60.0161535" lon="17.7563866">
        <ele>51.5679</ele>
        <time>2014-06-07T15:11:04Z</time>
      </trkpt>
      <trkpt lat="60.0161495" lon="17.7563322">
        <ele>51.5679</ele>
        <time>2014-06-07T15:11:05Z</time>
      </trkpt>
      <trkpt lat="60.0161488" lon="17.7562812">
        <ele>51.5679</ele>
        <time>2014-06-07T15:11:06Z</time>
      </trkpt>
      <trkpt lat="60.0161473" lon="17.7562311">
        <ele>52.0486</ele>
        <time>2014-06-07T15:11:07Z</time>
      </trkpt>
      <trkpt lat="60.0161541" lon="17.7561822">
        <ele>52.0486</ele>
        <time>2014-06-07T15:11:08Z</time>
      </trkpt>
      <trkpt lat="60.0161524" lon="17.7561236">
        <ele>52.5292</ele>
        <time>2014-06-07T15:11:09Z</time>
      </trkpt>
      <trkpt lat="60.0161519" lon="17.7560608">
        <ele>53.0098</ele>
        <time>2014-06-07T15:11:10Z</time>
      </trkpt>
      <trkpt lat="60.0161499" lon="17.7560113">
        <ele>53.0098</ele>
        <time>2014-06-07T15:11:11Z</time>
      </trkpt>
      <trkpt lat="60.0161487" lon="17.7559656">
        <ele>53.0098</ele>
        <time>2014-06-07T15:11:12Z</time>
      </trkpt>
      <trkpt lat="60.0161478" lon="17.7559207">
        <ele>53.4905</ele>
        <time>2014-06-07T15:11:13Z</time>
      </trkpt>
      <trkpt lat="60.0161388" lon="17.7558813">
        <ele>53.4905</ele>
        <time>2014-06-07T15:11:14Z</time>
      </trkpt>
      <trkpt lat="60.0161354" lon="17.7558343">
        <ele>53.4905</ele>
        <time>2014-06-07T15:11:15Z</time>
      </trkpt>
      <trkpt lat="60.0161252" lon="17.7557752">
        <ele>53.0098</ele>
        <time>2014-06-07T15:11:16Z</time>
      </trkpt>
      <trkpt lat="60.0161131" lon="17.7557177">
        <ele>52.5292</ele>
        <time>2014-06-07T15:11:17Z</time>
      </trkpt>
      <trkpt lat="60.0161002" lon="17.7556732">
        <ele>52.0486</ele>
        <time>2014-06-07T15:11:18Z</time>
      </trkpt>
      <trkpt lat="60.0161049" lon="17.7556235">
        <ele>52.5292</ele>
        <time>2014-06-07T15:11:19Z</time>
      </trkpt>
      <trkpt lat="60.0161041" lon="17.7555685">
        <ele>52.5292</ele>
        <time>2014-06-07T15:11:20Z</time>
      </trkpt>
      <trkpt lat="60.0161022" lon="17.755522">
        <ele>51.5679</ele>
        <time>2014-06-07T15:11:21Z</time>
      </trkpt>
      <trkpt lat="60.0160986" lon="17.7554686">
        <ele>51.5679</ele>
        <time>2014-06-07T15:11:22Z</time>
      </trkpt>
      <trkpt lat="60.0161067" lon="17.7554173">
        <ele>52.0486</ele>
        <time>2014-06-07T15:11:23Z</time>
      </trkpt>
      <trkpt lat="60.0161103" lon="17.7553682">
        <ele>51.5679</ele>
        <time>2014-06-07T15:11:24Z</time>
      </trkpt>
      <trkpt lat="60.0161085" lon="17.7553236">
        <ele>51.0872</ele>
        <time>2014-06-07T15:11:25Z</time>
      </trkpt>
      <trkpt lat="60.0161145" lon="17.7552744">
        <ele>51.0872</ele>
        <time>2014-06-07T15:11:26Z</time>
      </trkpt>
      <trkpt lat="60.0161344" lon="17.7552348">
        <ele>50.126</ele>
        <time>2014-06-07T15:11:27Z</time>
      </trkpt>
      <trkpt lat="60.0161541" lon="17.7551805">
        <ele>49.6453</ele>
        <time>2014-06-07T15:11:28Z</time>
      </trkpt>
      <trkpt lat="60.0161508" lon="17.7551131">
        <ele>49.1646</ele>
        <time>2014-06-07T15:11:29Z</time>
      </trkpt>
      <trkpt lat="60.0161499" lon="17.7550568">
        <ele>49.1646</ele>
        <time>2014-06-07T15:11:30Z</time>
      </trkpt>
      <trkpt lat="60.0161564" lon="17.7550091">
        <ele>48.684</ele>
        <time>2014-06-07T15:11:31Z</time>
      </trkpt>
      <trkpt lat="60.016156" lon="17.7549533">
        <ele>49.1646</ele>
        <time>2014-06-07T15:11:32Z</time>
      </trkpt>
      <trkpt lat="60.0161592" lon="17.7549003">
        <ele>49.6453</ele>
        <time>2014-06-07T15:11:33Z</time>
      </trkpt>
      <trkpt lat="60.0161607" lon="17.7548421">
        <ele>50.6066</ele>
        <time>2014-06-07T15:11:34Z</time>
      </trkpt>
      <trkpt lat="60.0161665" lon="17.7547862">
        <ele>51.0872</ele>
        <time>2014-06-07T15:11:35Z</time>
      </trkpt>
      <trkpt lat="60.016173" lon="17.7547279">
        <ele>51.5679</ele>
        <time>2014-06-07T15:11:36Z</time>
      </trkpt>
      <trkpt lat="60.0161787" lon="17.7546709">
        <ele>52.5292</ele>
        <time>2014-06-07T15:11:37Z</time>
      </trkpt>
      <trkpt lat="60.0161804" lon="17.7546128">
        <ele>52.5292</ele>
        <time>2014-06-07T15:11:38Z</time>
      </trkpt>
      <trkpt lat="60.0161722" lon="17.7545631">
        <ele>51.5679</ele>
        <time>2014-06-07T15:11:39Z</time>
      </trkpt>
      <trkpt lat="60.0161559" lon="17.7545149">
        <ele>51.5679</ele>
        <time>2014-06-07T15:11:40Z</time>
      </trkpt>
      <trkpt lat="60.0161343" lon="17.7544702">
        <ele>52.0486</ele>
        <time>2014-06-07T15:11:41Z</time>
      </trkpt>
      <trkpt lat="60.0161138" lon="17.7544314">
        <ele>52.0486</ele>
        <time>2014-06-07T15:11:42Z</time>
      </trkpt>
      <trkpt lat="60.0160893" lon="17.7543845">
        <ele>52.0486</ele>
        <time>2014-06-07T15:11:43Z</time>
      </trkpt>
      <trkpt lat="60.0160663" lon="17.7543461">
        <ele>51.5679</ele>
        <time>2014-06-07T15:11:44Z</time>
      </trkpt>
      <trkpt lat="60.0160363" lon="17.7543247">
        <ele>50.6066</ele>
        <time>2014-06-07T15:11:45Z</time>
      </trkpt>
      <trkpt lat="60.0160137" lon="17.7543032">
        <ele>50.126</ele>
        <time>2014-06-07T15:11:46Z</time>
      </trkpt>
      <trkpt lat="60.0159862" lon="17.7542945">
        <ele>48.684</ele>
        <time>2014-06-07T15:11:47Z</time>
      </trkpt>
      <trkpt lat="60.0159638" lon="17.7542975">
        <ele>48.2034</ele>
        <time>2014-06-07T15:11:48Z</time>
      </trkpt>
      <trkpt lat="60.0159415" lon="17.7543008">
        <ele>47.2418</ele>
        <time>2014-06-07T15:11:49Z</time>
      </trkpt>
      <trkpt lat="60.0159173" lon="17.7543065">
        <ele>46.7612</ele>
        <time>2014-06-07T15:11:50Z</time>
      </trkpt>
      <trkpt lat="60.0158877" lon="17.7543101">
        <ele>46.7612</ele>
        <time>2014-06-07T15:11:51Z</time>
      </trkpt>
      <trkpt lat="60.0158558" lon="17.7543098">
        <ele>47.2418</ele>
        <time>2014-06-07T15:11:52Z</time>
      </trkpt>
      <trkpt lat="60.0158316" lon="17.7543087">
        <ele>47.7225</ele>
        <time>2014-06-07T15:11:53Z</time>
      </trkpt>
      <trkpt lat="60.015808" lon="17.7542916">
        <ele>48.2034</ele>
        <time>2014-06-07T15:11:54Z</time>
      </trkpt>
      <trkpt lat="60.0157898" lon="17.7542506">
        <ele>48.684</ele>
        <time>2014-06-07T15:11:55Z</time>
      </trkpt>
      <trkpt lat="60.0157734" lon="17.7542181">
        <ele>48.684</ele>
        <time>2014-06-07T15:11:56Z</time>
      </trkpt>
      <trkpt lat="60.0157542" lon="17.7541808">
        <ele>48.684</ele>
        <time>2014-06-07T15:11:57Z</time>
      </trkpt>
      <trkpt lat="60.0157356" lon="17.7541457">
        <ele>48.2034</ele>
        <time>2014-06-07T15:11:58Z</time>
      </trkpt>
      <trkpt lat="60.0157184" lon="17.7541047">
        <ele>48.2034</ele>
        <time>2014-06-07T15:11:59Z</time>
      </trkpt>
      <trkpt lat="60.0156998" lon="17.7540614">
        <ele>48.2034</ele>
        <time>2014-06-07T15:12:00Z</time>
      </trkpt>
      <trkpt lat="60.0156828" lon="17.7540301">
        <ele>48.2034</ele>
        <time>2014-06-07T15:12:01Z</time>
      </trkpt>
      <trkpt lat="60.0156728" lon="17.7540052">
        <ele>48.684</ele>
        <time>2014-06-07T15:12:02Z</time>
      </trkpt>
      <trkpt lat="60.0156602" lon="17.7539644">
        <ele>48.684</ele>
        <time>2014-06-07T15:12:03Z</time>
      </trkpt>
      <trkpt lat="60.0156437" lon="17.7539151">
        <ele>49.1646</ele>
        <time>2014-06-07T15:12:04Z</time>
      </trkpt>
      <trkpt lat="60.0156261" lon="17.7538725">
        <ele>49.1646</ele>
        <time>2014-06-07T15:12:05Z</time>
      </trkpt>
      <trkpt lat="60.0156065" lon="17.7538362">
        <ele>49.1646</ele>
        <time>2014-06-07T15:12:06Z</time>
      </trkpt>
      <trkpt lat="60.0155863" lon="17.753814">
        <ele>49.6453</ele>
        <time>2014-06-07T15:12:07Z</time>
      </trkpt>
      <trkpt lat="60.0155665" lon="17.7537955">
        <ele>50.126</ele>
        <time>2014-06-07T15:12:08Z</time>
      </trkpt>
      <trkpt lat="60.0155491" lon="17.7537752">
        <ele>50.126</ele>
        <time>2014-06-07T15:12:09Z</time>
      </trkpt>
      <trkpt lat="60.0155293" lon="17.7537555">
        <ele>50.6066</ele>
        <time>2014-06-07T15:12:10Z</time>
      </trkpt>
      <trkpt lat="60.0155112" lon="17.7537304">
        <ele>50.6066</ele>
        <time>2014-06-07T15:12:11Z</time>
      </trkpt>
      <trkpt lat="60.0154847" lon="17.7536851">
        <ele>50.6066</ele>
        <time>2014-06-07T15:12:12Z</time>
      </trkpt>
      <trkpt lat="60.015449" lon="17.7536327">
        <ele>51.0872</ele>
        <time>2014-06-07T15:12:13Z</time>
      </trkpt>
      <trkpt lat="60.0154246" lon="17.753587">
        <ele>51.0872</ele>
        <time>2014-06-07T15:12:14Z</time>
      </trkpt>
      <trkpt lat="60.0153984" lon="17.7535317">
        <ele>51.0872</ele>
        <time>2014-06-07T15:12:15Z</time>
      </trkpt>
      <trkpt lat="60.0153765" lon="17.7534867">
        <ele>51.5679</ele>
        <time>2014-06-07T15:12:16Z</time>
      </trkpt>
      <trkpt lat="60.0153688" lon="17.7534623">
        <ele>51.0872</ele>
        <time>2014-06-07T15:12:17Z</time>
      </trkpt>
      <trkpt lat="60.015358" lon="17.7534303">
        <ele>49.6453</ele>
        <time>2014-06-07T15:12:18Z</time>
      </trkpt>
      <trkpt lat="60.0153601" lon="17.7533935">
        <ele>48.2034</ele>
        <time>2014-06-07T15:12:19Z</time>
      </trkpt>
      <trkpt lat="60.0153634" lon="17.7533419">
        <ele>48.2034</ele>
        <time>2014-06-07T15:12:20Z</time>
      </trkpt>
      <trkpt lat="60.0153756" lon="17.753284">
        <ele>48.684</ele>
        <time>2014-06-07T15:12:21Z</time>
      </trkpt>
      <trkpt lat="60.0153919" lon="17.7532343">
        <ele>48.684</ele>
        <time>2014-06-07T15:12:22Z</time>
      </trkpt>
      <trkpt lat="60.0154097" lon="17.7531948">
        <ele>48.684</ele>
        <time>2014-06-07T15:12:23Z</time>
      </trkpt>
      <trkpt lat="60.0154276" lon="17.7531587">
        <ele>49.1646</ele>
        <time>2014-06-07T15:12:24Z</time>
      </trkpt>
      <trkpt lat="60.0154473" lon="17.7531183">
        <ele>50.126</ele>
        <time>2014-06-07T15:12:25Z</time>
      </trkpt>
      <trkpt lat="60.0154697" lon="17.7530805">
        <ele>50.126</ele>
        <time>2014-06-07T15:12:26Z</time>
      </trkpt>
      <trkpt lat="60.0154949" lon="17.7530389">
        <ele>50.126</ele>
        <time>2014-06-07T15:12:27Z</time>
      </trkpt>
      <trkpt lat="60.0155168" lon="17.7529909">
        <ele>50.126</ele>
        <time>2014-06-07T15:12:28Z</time>
      </trkpt>
      <trkpt lat="60.0155418" lon="17.752936">
        <ele>50.6066</ele>
        <time>2014-06-07T15:12:29Z</time>
      </trkpt>
      <trkpt lat="60.0155584" lon="17.7528825">
        <ele>51.0872</ele>
        <time>2014-06-07T15:12:30Z</time>
      </trkpt>
      <trkpt lat="60.0155833" lon="17.7528175">
        <ele>52.0486</ele>
        <time>2014-06-07T15:12:31Z</time>
      </trkpt>
      <trkpt lat="60.0156159" lon="17.7527528">
        <ele>53.0098</ele>
        <time>2014-06-07T15:12:32Z</time>
      </trkpt>
      <trkpt lat="60.0156417" lon="17.7526901">
        <ele>53.4905</ele>
        <time>2014-06-07T15:12:33Z</time>
      </trkpt>
      <trkpt lat="60.0156583" lon="17.7526333">
        <ele>53.9712</ele>
        <time>2014-06-07T15:12:34Z</time>
      </trkpt>
      <trkpt lat="60.0156588" lon="17.7525817">
        <ele>53.9712</ele>
        <time>2014-06-07T15:12:35Z</time>
      </trkpt>
      <trkpt lat="60.0156666" lon="17.7525248">
        <ele>54.4518</ele>
        <time>2014-06-07T15:12:36Z</time>
      </trkpt>
      <trkpt lat="60.0156775" lon="17.7524595">
        <ele>55.4131</ele>
        <time>2014-06-07T15:12:37Z</time>
      </trkpt>
      <trkpt lat="60.0156796" lon="17.7523971">
        <ele>55.4131</ele>
        <time>2014-06-07T15:12:38Z</time>
      </trkpt>
      <trkpt lat="60.0156721" lon="17.7523392">
        <ele>54.9324</ele>
        <time>2014-06-07T15:12:39Z</time>
      </trkpt>
      <trkpt lat="60.0156667" lon="17.7522744">
        <ele>55.4131</ele>
        <time>2014-06-07T15:12:40Z</time>
      </trkpt>
      <trkpt lat="60.0156695" lon="17.7522044">
        <ele>57.3358</ele>
        <time>2014-06-07T15:12:41Z</time>
      </trkpt>
      <trkpt lat="60.0156728" lon="17.7521412">
        <ele>58.2971</ele>
        <time>2014-06-07T15:12:42Z</time>
      </trkpt>
      <trkpt lat="60.0156766" lon="17.7520824">
        <ele>58.7777</ele>
        <time>2014-06-07T15:12:43Z</time>
      </trkpt>
      <trkpt lat="60.0156797" lon="17.7520233">
        <ele>59.7391</ele>
        <time>2014-06-07T15:12:44Z</time>
      </trkpt>
      <trkpt lat="60.0156781" lon="17.751972">
        <ele>60.7003</ele>
        <time>2014-06-07T15:12:45Z</time>
      </trkpt>
      <trkpt lat="60.0156768" lon="17.7519146">
        <ele>61.6617</ele>
        <time>2014-06-07T15:12:46Z</time>
      </trkpt>
      <trkpt lat="60.0156733" lon="17.7518497">
        <ele>62.6229</ele>
        <time>2014-06-07T15:12:47Z</time>
      </trkpt>
      <trkpt lat="60.0156757" lon="17.7517938">
        <ele>63.1036</ele>
        <time>2014-06-07T15:12:48Z</time>
      </trkpt>
      <trkpt lat="60.0156713" lon="17.7517465">
        <ele>62.6229</ele>
        <time>2014-06-07T15:12:49Z</time>
      </trkpt>
      <trkpt lat="60.0156835" lon="17.7517012">
        <ele>62.1423</ele>
        <time>2014-06-07T15:12:50Z</time>
      </trkpt>
      <trkpt lat="60.0157043" lon="17.7516439">
        <ele>62.6229</ele>
        <time>2014-06-07T15:12:51Z</time>
      </trkpt>
      <trkpt lat="60.0157162" lon="17.7516017">
        <ele>61.6617</ele>
        <time>2014-06-07T15:12:52Z</time>
      </trkpt>
      <trkpt lat="60.0157133" lon="17.7515752">
        <ele>60.7003</ele>
        <time>2014-06-07T15:12:53Z</time>
      </trkpt>
      <trkpt lat="60.0157044" lon="17.7515462">
        <ele>59.2584</ele>
        <time>2014-06-07T15:12:54Z</time>
      </trkpt>
      <trkpt lat="60.0157141" lon="17.7515066">
        <ele>58.2971</ele>
        <time>2014-06-07T15:12:55Z</time>
      </trkpt>
      <trkpt lat="60.015722" lon="17.7514667">
        <ele>59.2584</ele>
        <time>2014-06-07T15:12:56Z</time>
      </trkpt>
      <trkpt lat="60.0157303" lon="17.7514482">
        <ele>59.2584</ele>
        <time>2014-06-07T15:12:57Z</time>
      </trkpt>
      <trkpt lat="60.0157358" lon="17.7514191">
        <ele>59.7391</ele>
        <time>2014-06-07T15:12:58Z</time>
      </trkpt>
      <trkpt lat="60.0157485" lon="17.7513834">
        <ele>60.7003</ele>
        <time>2014-06-07T15:12:59Z</time>
      </trkpt>
      <trkpt lat="60.0157534" lon="17.7513476">
        <ele>61.6617</ele>
        <time>2014-06-07T15:13:00Z</time>
      </trkpt>
      <trkpt lat="60.0157546" lon="17.7513148">
        <ele>62.1423</ele>
        <time>2014-06-07T15:13:01Z</time>
      </trkpt>
      <trkpt lat="60.0157688" lon="17.7512758">
        <ele>61.6617</ele>
        <time>2014-06-07T15:13:02Z</time>
      </trkpt>
      <trkpt lat="60.0157801" lon="17.7512114">
        <ele>62.6229</ele>
        <time>2014-06-07T15:13:03Z</time>
      </trkpt>
      <trkpt lat="60.0157858" lon="17.7511464">
        <ele>63.1036</ele>
        <time>2014-06-07T15:13:04Z</time>
      </trkpt>
      <trkpt lat="60.0157858" lon="17.7510903">
        <ele>62.6229</ele>
        <time>2014-06-07T15:13:05Z</time>
      </trkpt>
      <trkpt lat="60.0157883" lon="17.751034">
        <ele>62.6229</ele>
        <time>2014-06-07T15:13:06Z</time>
      </trkpt>
      <trkpt lat="60.0157807" lon="17.7509676">
        <ele>63.1036</ele>
        <time>2014-06-07T15:13:07Z</time>
      </trkpt>
      <trkpt lat="60.0157822" lon="17.7509059">
        <ele>64.0651</ele>
        <time>2014-06-07T15:13:08Z</time>
      </trkpt>
      <trkpt lat="60.015779" lon="17.7508431">
        <ele>65.0264</ele>
        <time>2014-06-07T15:13:09Z</time>
      </trkpt>
      <trkpt lat="60.0157721" lon="17.750789">
        <ele>64.5457</ele>
        <time>2014-06-07T15:13:10Z</time>
      </trkpt>
      <trkpt lat="60.0157748" lon="17.7507398">
        <ele>64.5457</ele>
        <time>2014-06-07T15:13:11Z</time>
      </trkpt>
      <trkpt lat="60.0157918" lon="17.7506775">
        <ele>65.0264</ele>
        <time>2014-06-07T15:13:12Z</time>
      </trkpt>
      <trkpt lat="60.0158014" lon="17.7506215">
        <ele>64.0651</ele>
        <time>2014-06-07T15:13:13Z</time>
      </trkpt>
      <trkpt lat="60.0158045" lon="17.7505585">
        <ele>64.0651</ele>
        <time>2014-06-07T15:13:14Z</time>
      </trkpt>
      <trkpt lat="60.0158111" lon="17.7505009">
        <ele>63.5844</ele>
        <time>2014-06-07T15:13:15Z</time>
      </trkpt>
      <trkpt lat="60.0158156" lon="17.7504511">
        <ele>62.6229</ele>
        <time>2014-06-07T15:13:16Z</time>
      </trkpt>
      <trkpt lat="60.0158126" lon="17.7504058">
        <ele>61.6617</ele>
        <time>2014-06-07T15:13:17Z</time>
      </trkpt>
      <trkpt lat="60.0157918" lon="17.7503609">
        <ele>59.7391</ele>
        <time>2014-06-07T15:13:18Z</time>
      </trkpt>
      <trkpt lat="60.0157739" lon="17.7503097">
        <ele>59.2584</ele>
        <time>2014-06-07T15:13:19Z</time>
      </trkpt>
      <trkpt lat="60.0157591" lon="17.7502553">
        <ele>59.7391</ele>
        <time>2014-06-07T15:13:20Z</time>
      </trkpt>
      <trkpt lat="60.0157416" lon="17.7501978">
        <ele>59.2584</ele>
        <time>2014-06-07T15:13:21Z</time>
      </trkpt>
      <trkpt lat="60.0157325" lon="17.7501439">
        <ele>58.7777</ele>
        <time>2014-06-07T15:13:22Z</time>
      </trkpt>
      <trkpt lat="60.015736" lon="17.7500932">
        <ele>58.7777</ele>
        <time>2014-06-07T15:13:23Z</time>
      </trkpt>
      <trkpt lat="60.0157509" lon="17.7500335">
        <ele>59.2584</ele>
        <time>2014-06-07T15:13:24Z</time>
      </trkpt>
      <trkpt lat="60.0157525" lon="17.7499849">
        <ele>58.7777</ele>
        <time>2014-06-07T15:13:25Z</time>
      </trkpt>
      <trkpt lat="60.0157799" lon="17.7499436">
        <ele>59.2584</ele>
        <time>2014-06-07T15:13:26Z</time>
      </trkpt>
      <trkpt lat="60.0158052" lon="17.7498961">
        <ele>59.2584</ele>
        <time>2014-06-07T15:13:27Z</time>
      </trkpt>
      <trkpt lat="60.01584" lon="17.7498404">
        <ele>60.7003</ele>
        <time>2014-06-07T15:13:28Z</time>
      </trkpt>
      <trkpt lat="60.0158609" lon="17.7497901">
        <ele>61.181</ele>
        <time>2014-06-07T15:13:29Z</time>
      </trkpt>
      <trkpt lat="60.0158805" lon="17.7497431">
        <ele>61.181</ele>
        <time>2014-06-07T15:13:30Z</time>
      </trkpt>
      <trkpt lat="60.0158907" lon="17.7497042">
        <ele>60.7003</ele>
        <time>2014-06-07T15:13:31Z</time>
      </trkpt>
      <trkpt lat="60.0158996" lon="17.749671">
        <ele>60.2197</ele>
        <time>2014-06-07T15:13:32Z</time>
      </trkpt>
      <trkpt lat="60.0159106" lon="17.7496428">
        <ele>60.2197</ele>
        <time>2014-06-07T15:13:33Z</time>
      </trkpt>
      <trkpt lat="60.015918" lon="17.7496201">
        <ele>59.7391</ele>
        <time>2014-06-07T15:13:34Z</time>
      </trkpt>
      <trkpt lat="60.0159348" lon="17.7495848">
        <ele>59.2584</ele>
        <time>2014-06-07T15:13:35Z</time>
      </trkpt>
      <trkpt lat="60.0159469" lon="17.7495487">
        <ele>58.2971</ele>
        <time>2014-06-07T15:13:36Z</time>
      </trkpt>
      <trkpt lat="60.0159663" lon="17.7495104">
        <ele>58.2971</ele>
        <time>2014-06-07T15:13:37Z</time>
      </trkpt>
      <trkpt lat="60.0159816" lon="17.749472">
        <ele>57.3358</ele>
        <time>2014-06-07T15:13:38Z</time>
      </trkpt>
      <trkpt lat="60.0160013" lon="17.7494332">
        <ele>56.8551</ele>
        <time>2014-06-07T15:13:39Z</time>
      </trkpt>
      <trkpt lat="60.01601" lon="17.7493985">
        <ele>55.8938</ele>
        <time>2014-06-07T15:13:40Z</time>
      </trkpt>
      <trkpt lat="60.0160088" lon="17.7493524">
        <ele>54.4518</ele>
        <time>2014-06-07T15:13:41Z</time>
      </trkpt>
      <trkpt lat="60.0160156" lon="17.7493061">
        <ele>53.9712</ele>
        <time>2014-06-07T15:13:42Z</time>
      </trkpt>
      <trkpt lat="60.0160246" lon="17.7492659">
        <ele>53.4905</ele>
        <time>2014-06-07T15:13:43Z</time>
      </trkpt>
      <trkpt lat="60.0160384" lon="17.7492276">
        <ele>52.5292</ele>
        <time>2014-06-07T15:13:44Z</time>
      </trkpt>
      <trkpt lat="60.0160484" lon="17.7491774">
        <ele>52.5292</ele>
        <time>2014-06-07T15:13:45Z</time>
      </trkpt>
      <trkpt lat="60.0160556" lon="17.7491209">
        <ele>52.5292</ele>
        <time>2014-06-07T15:13:46Z</time>
      </trkpt>
      <trkpt lat="60.0160603" lon="17.749059">
        <ele>52.5292</ele>
        <time>2014-06-07T15:13:47Z</time>
      </trkpt>
      <trkpt lat="60.0160749" lon="17.749002">
        <ele>52.5292</ele>
        <time>2014-06-07T15:13:48Z</time>
      </trkpt>
      <trkpt lat="60.0160826" lon="17.7489449">
        <ele>52.5292</ele>
        <time>2014-06-07T15:13:49Z</time>
      </trkpt>
      <trkpt lat="60.0160883" lon="17.7488931">
        <ele>52.0486</ele>
        <time>2014-06-07T15:13:50Z</time>
      </trkpt>
      <trkpt lat="60.016096" lon="17.748853">
        <ele>51.0872</ele>
        <time>2014-06-07T15:13:51Z</time>
      </trkpt>
      <trkpt lat="60.0160969" lon="17.7488064">
        <ele>50.6066</ele>
        <time>2014-06-07T15:13:52Z</time>
      </trkpt>
      <trkpt lat="60.0160923" lon="17.748752">
        <ele>50.126</ele>
        <time>2014-06-07T15:13:53Z</time>
      </trkpt>
      <trkpt lat="60.0160858" lon="17.748693">
        <ele>50.126</ele>
        <time>2014-06-07T15:13:54Z</time>
      </trkpt>
      <trkpt lat="60.0160821" lon="17.7486391">
        <ele>49.1646</ele>
        <time>2014-06-07T15:13:55Z</time>
      </trkpt>
      <trkpt lat="60.0160794" lon="17.7485852">
        <ele>48.684</ele>
        <time>2014-06-07T15:13:56Z</time>
      </trkpt>
      <trkpt lat="60.0160821" lon="17.7485298">
        <ele>48.684</ele>
        <time>2014-06-07T15:13:57Z</time>
      </trkpt>
      <trkpt lat="60.0160842" lon="17.7484845">
        <ele>49.1646</ele>
        <time>2014-06-07T15:13:58Z</time>
      </trkpt>
      <trkpt lat="60.0160829" lon="17.7484448">
        <ele>48.684</ele>
        <time>2014-06-07T15:13:59Z</time>
      </trkpt>
      <trkpt lat="60.0160875" lon="17.7484004">
        <ele>48.684</ele>
        <time>2014-06-07T15:14:00Z</time>
      </trkpt>
      <trkpt lat="60.0160975" lon="17.7483594">
        <ele>49.1646</ele>
        <time>2014-06-07T15:14:01Z</time>
      </trkpt>
      <trkpt lat="60.0161064" lon="17.7483124">
        <ele>49.1646</ele>
        <time>2014-06-07T15:14:02Z</time>
      </trkpt>
      <trkpt lat="60.0161131" lon="17.7482517">
        <ele>49.1646</ele>
        <time>2014-06-07T15:14:03Z</time>
      </trkpt>
      <trkpt lat="60.0161165" lon="17.7481941">
        <ele>49.1646</ele>
        <time>2014-06-07T15:14:04Z</time>
      </trkpt>
      <trkpt lat="60.0161256" lon="17.7481345">
        <ele>49.1646</ele>
        <time>2014-06-07T15:14:05Z</time>
      </trkpt>
      <trkpt lat="60.0161363" lon="17.7480766">
        <ele>49.1646</ele>
        <time>2014-06-07T15:14:06Z</time>
      </trkpt>
      <trkpt lat="60.0161473" lon="17.748031">
        <ele>49.1646</ele>
        <time>2014-06-07T15:14:07Z</time>
      </trkpt>
      <trkpt lat="60.0161653" lon="17.7479699">
        <ele>49.1646</ele>
        <time>2014-06-07T15:14:08Z</time>
      </trkpt>
      <trkpt lat="60.0161844" lon="17.7479248">
        <ele>49.6453</ele>
        <time>2014-06-07T15:14:09Z</time>
      </trkpt>
      <trkpt lat="60.0161955" lon="17.7478751">
        <ele>49.6453</ele>
        <time>2014-06-07T15:14:10Z</time>
      </trkpt>
      <trkpt lat="60.0162134" lon="17.7478265">
        <ele>50.6066</ele>
        <time>2014-06-07T15:14:11Z</time>
      </trkpt>
      <trkpt lat="60.0162275" lon="17.7477859">
        <ele>51.0872</ele>
        <time>2014-06-07T15:14:12Z</time>
      </trkpt>
      <trkpt lat="60.016241" lon="17.7477444">
        <ele>51.5679</ele>
        <time>2014-06-07T15:14:13Z</time>
      </trkpt>
      <trkpt lat="60.0162499" lon="17.7477062">
        <ele>51.5679</ele>
        <time>2014-06-07T15:14:14Z</time>
      </trkpt>
      <trkpt lat="60.0162597" lon="17.7476782">
        <ele>50.6066</ele>
        <time>2014-06-07T15:14:15Z</time>
      </trkpt>
      <trkpt lat="60.016269" lon="17.7476389">
        <ele>50.6066</ele>
        <time>2014-06-07T15:14:16Z</time>
      </trkpt>
      <trkpt lat="60.0162772" lon="17.747597">
        <ele>50.126</ele>
        <time>2014-06-07T15:14:17Z</time>
      </trkpt>
      <trkpt lat="60.0162854" lon="17.7475615">
        <ele>49.6453</ele>
        <time>2014-06-07T15:14:18Z</time>
      </trkpt>
      <trkpt lat="60.0162959" lon="17.7475219">
        <ele>48.684</ele>
        <time>2014-06-07T15:14:19Z</time>
      </trkpt>
      <trkpt lat="60.0163052" lon="17.7474796">
        <ele>48.2034</ele>
        <time>2014-06-07T15:14:20Z</time>
      </trkpt>
      <trkpt lat="60.0163135" lon="17.7474467">
        <ele>47.7225</ele>
        <time>2014-06-07T15:14:21Z</time>
      </trkpt>
      <trkpt lat="60.0163203" lon="17.7474188">
        <ele>47.7225</ele>
        <time>2014-06-07T15:14:22Z</time>
      </trkpt>
      <trkpt lat="60.0163286" lon="17.7473844">
        <ele>47.7225</ele>
        <time>2014-06-07T15:14:23Z</time>
      </trkpt>
      <trkpt lat="60.0163212" lon="17.7473507">
        <ele>47.2418</ele>
        <time>2014-06-07T15:14:24Z</time>
      </trkpt>
      <trkpt lat="60.0163364" lon="17.7473072">
        <ele>47.2418</ele>
        <time>2014-06-07T15:14:25Z</time>
      </trkpt>
      <trkpt lat="60.0163422" lon="17.7472592">
        <ele>46.2806</ele>
        <time>2014-06-07T15:14:26Z</time>
      </trkpt>
      <trkpt lat="60.0163442" lon="17.7472046">
        <ele>46.2806</ele>
        <time>2014-06-07T15:14:27Z</time>
      </trkpt>
      <trkpt lat="60.0163624" lon="17.7471421">
        <ele>45.7999</ele>
        <time>2014-06-07T15:14:28Z</time>
      </trkpt>
      <trkpt lat="60.0163715" lon="17.7470943">
        <ele>45.3192</ele>
        <time>2014-06-07T15:14:29Z</time>
      </trkpt>
      <trkpt lat="60.0163819" lon="17.7470469">
        <ele>45.3192</ele>
        <time>2014-06-07T15:14:30Z</time>
      </trkpt>
      <trkpt lat="60.0163974" lon="17.7469932">
        <ele>45.7999</ele>
        <time>2014-06-07T15:14:31Z</time>
      </trkpt>
      <trkpt lat="60.0164013" lon="17.7469452">
        <ele>45.3192</ele>
        <time>2014-06-07T15:14:32Z</time>
      </trkpt>
      <trkpt lat="60.0164053" lon="17.7468903">
        <ele>45.7999</ele>
        <time>2014-06-07T15:14:33Z</time>
      </trkpt>
      <trkpt lat="60.0164095" lon="17.7468292">
        <ele>46.2806</ele>
        <time>2014-06-07T15:14:34Z</time>
      </trkpt>
      <trkpt lat="60.0164207" lon="17.7467772">
        <ele>45.7999</ele>
        <time>2014-06-07T15:14:35Z</time>
      </trkpt>
      <trkpt lat="60.0164307" lon="17.7467303">
        <ele>45.7999</ele>
        <time>2014-06-07T15:14:36Z</time>
      </trkpt>
      <trkpt lat="60.0164444" lon="17.7466843">
        <ele>45.7999</ele>
        <time>2014-06-07T15:14:37Z</time>
      </trkpt>
      <trkpt lat="60.016458" lon="17.7466303">
        <ele>45.3192</ele>
        <time>2014-06-07T15:14:38Z</time>
      </trkpt>
      <trkpt lat="60.0164658" lon="17.7465703">
        <ele>45.3192</ele>
        <time>2014-06-07T15:14:39Z</time>
      </trkpt>
      <trkpt lat="60.0164716" lon="17.7465223">
        <ele>44.8386</ele>
        <time>2014-06-07T15:14:40Z</time>
      </trkpt>
      <trkpt lat="60.016479" lon="17.7464806">
        <ele>44.358</ele>
        <time>2014-06-07T15:14:41Z</time>
      </trkpt>
      <trkpt lat="60.0164823" lon="17.746442">
        <ele>43.8773</ele>
        <time>2014-06-07T15:14:42Z</time>
      </trkpt>
      <trkpt lat="60.0164851" lon="17.7463889">
        <ele>42.916</ele>
        <time>2014-06-07T15:14:43Z</time>
      </trkpt>
      <trkpt lat="60.016494" lon="17.7463402">
        <ele>42.4354</ele>
        <time>2014-06-07T15:14:44Z</time>
      </trkpt>
      <trkpt lat="60.0165025" lon="17.7462915">
        <ele>41.9547</ele>
        <time>2014-06-07T15:14:45Z</time>
      </trkpt>
      <trkpt lat="60.0165147" lon="17.7462524">
        <ele>41.9547</ele>
        <time>2014-06-07T15:14:46Z</time>
      </trkpt>
      <trkpt lat="60.016518" lon="17.7462072">
        <ele>41.474</ele>
        <time>2014-06-07T15:14:47Z</time>
      </trkpt>
      <trkpt lat="60.0165336" lon="17.7461683">
        <ele>41.9547</ele>
        <time>2014-06-07T15:14:48Z</time>
      </trkpt>
      <trkpt lat="60.0165541" lon="17.7461434">
        <ele>41.9547</ele>
        <time>2014-06-07T15:14:49Z</time>
      </trkpt>
      <trkpt lat="60.0165716" lon="17.7461413">
        <ele>41.474</ele>
        <time>2014-06-07T15:14:50Z</time>
      </trkpt>
      <trkpt lat="60.0165923" lon="17.7461374">
        <ele>40.9934</ele>
        <time>2014-06-07T15:14:51Z</time>
      </trkpt>
      <trkpt lat="60.0166131" lon="17.7461273">
        <ele>40.9934</ele>
        <time>2014-06-07T15:14:52Z</time>
      </trkpt>
      <trkpt lat="60.0166346" lon="17.7461196">
        <ele>41.474</ele>
        <time>2014-06-07T15:14:53Z</time>
      </trkpt>
      <trkpt lat="60.0166537" lon="17.7461115">
        <ele>41.474</ele>
        <time>2014-06-07T15:14:54Z</time>
      </trkpt>
      <trkpt lat="60.0166772" lon="17.7461108">
        <ele>42.4354</ele>
        <time>2014-06-07T15:14:55Z</time>
      </trkpt>
      <trkpt lat="60.0167057" lon="17.7461136">
        <ele>42.916</ele>
        <time>2014-06-07T15:14:56Z</time>
      </trkpt>
      <trkpt lat="60.0167285" lon="17.7461148">
        <ele>43.3966</ele>
        <time>2014-06-07T15:14:57Z</time>
      </trkpt>
      <trkpt lat="60.016755" lon="17.7461186">
        <ele>43.3966</ele>
        <time>2014-06-07T15:14:58Z</time>
      </trkpt>
      <trkpt lat="60.0167814" lon="17.7461184">
        <ele>44.358</ele>
        <time>2014-06-07T15:14:59Z</time>
      </trkpt>
      <trkpt lat="60.016805" lon="17.7461231">
        <ele>44.8386</ele>
        <time>2014-06-07T15:15:00Z</time>
      </trkpt>
      <trkpt lat="60.0168359" lon="17.7461123">
        <ele>46.2806</ele>
        <time>2014-06-07T15:15:01Z</time>
      </trkpt>
      <trkpt lat="60.0168658" lon="17.7461081">
        <ele>47.2418</ele>
        <time>2014-06-07T15:15:02Z</time>
      </trkpt>
      <trkpt lat="60.0168897" lon="17.746109">
        <ele>47.7225</ele>
        <time>2014-06-07T15:15:03Z</time>
      </trkpt>
      <trkpt lat="60.0169139" lon="17.7461086">
        <ele>49.1646</ele>
        <time>2014-06-07T15:15:04Z</time>
      </trkpt>
      <trkpt lat="60.0169421" lon="17.746116">
        <ele>50.126</ele>
        <time>2014-06-07T15:15:05Z</time>
      </trkpt>
      <trkpt lat="60.0169735" lon="17.7461294">
        <ele>50.6066</ele>
        <time>2014-06-07T15:15:06Z</time>
      </trkpt>
      <trkpt lat="60.0170051" lon="17.746132">
        <ele>51.5679</ele>
        <time>2014-06-07T15:15:07Z</time>
      </trkpt>
      <trkpt lat="60.0170336" lon="17.7461278">
        <ele>52.5292</ele>
        <time>2014-06-07T15:15:08Z</time>
      </trkpt>
      <trkpt lat="60.0170559" lon="17.7461325">
        <ele>52.5292</ele>
        <time>2014-06-07T15:15:09Z</time>
      </trkpt>
      <trkpt lat="60.0170844" lon="17.7461247">
        <ele>53.4905</ele>
        <time>2014-06-07T15:15:10Z</time>
      </trkpt>
      <trkpt lat="60.0171036" lon="17.7461169">
        <ele>53.4905</ele>
        <time>2014-06-07T15:15:11Z</time>
      </trkpt>
      <trkpt lat="60.0171295" lon="17.7461191">
        <ele>53.4905</ele>
        <time>2014-06-07T15:15:12Z</time>
      </trkpt>
      <trkpt lat="60.0171715" lon="17.7461274">
        <ele>54.4518</ele>
        <time>2014-06-07T15:15:13Z</time>
      </trkpt>
      <trkpt lat="60.0172091" lon="17.7461334">
        <ele>54.9324</ele>
        <time>2014-06-07T15:15:14Z</time>
      </trkpt>
      <trkpt lat="60.0172384" lon="17.7461455">
        <ele>54.4518</ele>
        <time>2014-06-07T15:15:15Z</time>
      </trkpt>
      <trkpt lat="60.0172627" lon="17.7461563">
        <ele>54.4518</ele>
        <time>2014-06-07T15:15:16Z</time>
      </trkpt>
      <trkpt lat="60.0172837" lon="17.7461657">
        <ele>53.4905</ele>
        <time>2014-06-07T15:15:17Z</time>
      </trkpt>
      <trkpt lat="60.0173069" lon="17.7461799">
        <ele>53.0098</ele>
        <time>2014-06-07T15:15:18Z</time>
      </trkpt>
      <trkpt lat="60.0173355" lon="17.7461998">
        <ele>53.0098</ele>
        <time>2014-06-07T15:15:19Z</time>
      </trkpt>
      <trkpt lat="60.017365" lon="17.7462231">
        <ele>53.4905</ele>
        <time>2014-06-07T15:15:20Z</time>
      </trkpt>
      <trkpt lat="60.0174025" lon="17.7462464">
        <ele>54.4518</ele>
        <time>2014-06-07T15:15:21Z</time>
      </trkpt>
      <trkpt lat="60.0174364" lon="17.7462724">
        <ele>55.4131</ele>
        <time>2014-06-07T15:15:22Z</time>
      </trkpt>
      <trkpt lat="60.0174682" lon="17.7463008">
        <ele>56.3745</ele>
        <time>2014-06-07T15:15:23Z</time>
      </trkpt>
      <trkpt lat="60.0174952" lon="17.7463362">
        <ele>56.8551</ele>
        <time>2014-06-07T15:15:24Z</time>
      </trkpt>
      <trkpt lat="60.017518" lon="17.7463758">
        <ele>57.3358</ele>
        <time>2014-06-07T15:15:25Z</time>
      </trkpt>
      <trkpt lat="60.0175356" lon="17.7464165">
        <ele>57.3358</ele>
        <time>2014-06-07T15:15:26Z</time>
      </trkpt>
      <trkpt lat="60.0175532" lon="17.7464561">
        <ele>56.8551</ele>
        <time>2014-06-07T15:15:27Z</time>
      </trkpt>
      <trkpt lat="60.0175843" lon="17.7464846">
        <ele>57.8165</ele>
        <time>2014-06-07T15:15:28Z</time>
      </trkpt>
      <trkpt lat="60.0176191" lon="17.7465052">
        <ele>59.2584</ele>
        <time>2014-06-07T15:15:29Z</time>
      </trkpt>
      <trkpt lat="60.0176457" lon="17.7465203">
        <ele>59.7391</ele>
        <time>2014-06-07T15:15:30Z</time>
      </trkpt>
      <trkpt lat="60.0176698" lon="17.7465339">
        <ele>60.2197</ele>
        <time>2014-06-07T15:15:31Z</time>
      </trkpt>
      <trkpt lat="60.0176962" lon="17.7465469">
        <ele>59.7391</ele>
        <time>2014-06-07T15:15:32Z</time>
      </trkpt>
      <trkpt lat="60.0177101" lon="17.7465689">
        <ele>58.7777</ele>
        <time>2014-06-07T15:15:33Z</time>
      </trkpt>
      <trkpt lat="60.0177248" lon="17.7465935">
        <ele>57.8165</ele>
        <time>2014-06-07T15:15:34Z</time>
      </trkpt>
      <trkpt lat="60.0177472" lon="17.7466063">
        <ele>57.8165</ele>
        <time>2014-06-07T15:15:35Z</time>
      </trkpt>
      <trkpt lat="60.0177578" lon="17.7466137">
        <ele>56.3745</ele>
        <time>2014-06-07T15:15:36Z</time>
      </trkpt>
      <trkpt lat="60.0177704" lon="17.7466199">
        <ele>54.9324</ele>
        <time>2014-06-07T15:15:37Z</time>
      </trkpt>
      <trkpt lat="60.0177878" lon="17.7466249">
        <ele>53.4905</ele>
        <time>2014-06-07T15:15:38Z</time>
      </trkpt>
      <trkpt lat="60.0178044" lon="17.7466328">
        <ele>52.5292</ele>
        <time>2014-06-07T15:15:39Z</time>
      </trkpt>
      <trkpt lat="60.017821" lon="17.7466359">
        <ele>51.0872</ele>
        <time>2014-06-07T15:15:40Z</time>
      </trkpt>
      <trkpt lat="60.0178377" lon="17.7466391">
        <ele>50.126</ele>
        <time>2014-06-07T15:15:41Z</time>
      </trkpt>
      <trkpt lat="60.0178599" lon="17.7466399">
        <ele>49.6453</ele>
        <time>2014-06-07T15:15:42Z</time>
      </trkpt>
      <trkpt lat="60.0178793" lon="17.746639">
        <ele>49.1646</ele>
        <time>2014-06-07T15:15:43Z</time>
      </trkpt>
      <trkpt lat="60.0178962" lon="17.746641">
        <ele>48.684</ele>
        <time>2014-06-07T15:15:44Z</time>
      </trkpt>
      <trkpt lat="60.0179173" lon="17.7466498">
        <ele>48.2034</ele>
        <time>2014-06-07T15:15:45Z</time>
      </trkpt>
      <trkpt lat="60.0179392" lon="17.7466637">
        <ele>48.684</ele>
        <time>2014-06-07T15:15:46Z</time>
      </trkpt>
      <trkpt lat="60.0179588" lon="17.7466845">
        <ele>48.2034</ele>
        <time>2014-06-07T15:15:47Z</time>
      </trkpt>
      <trkpt lat="60.01798" lon="17.7467053">
        <ele>47.7225</ele>
        <time>2014-06-07T15:15:48Z</time>
      </trkpt>
      <trkpt lat="60.0180074" lon="17.7467155">
        <ele>47.7225</ele>
        <time>2014-06-07T15:15:49Z</time>
      </trkpt>
      <trkpt lat="60.0180344" lon="17.7467265">
        <ele>48.2034</ele>
        <time>2014-06-07T15:15:50Z</time>
      </trkpt>
      <trkpt lat="60.0180552" lon="17.7467451">
        <ele>47.7225</ele>
        <time>2014-06-07T15:15:51Z</time>
      </trkpt>
      <trkpt lat="60.0180871" lon="17.7467609">
        <ele>48.2034</ele>
        <time>2014-06-07T15:15:52Z</time>
      </trkpt>
      <trkpt lat="60.0181213" lon="17.7467732">
        <ele>48.684</ele>
        <time>2014-06-07T15:15:53Z</time>
      </trkpt>
      <trkpt lat="60.018151" lon="17.7467767">
        <ele>49.1646</ele>
        <time>2014-06-07T15:15:54Z</time>
      </trkpt>
      <trkpt lat="60.0181813" lon="17.7467715">
        <ele>50.126</ele>
        <time>2014-06-07T15:15:55Z</time>
      </trkpt>
      <trkpt lat="60.0182111" lon="17.7467712">
        <ele>50.6066</ele>
        <time>2014-06-07T15:15:56Z</time>
      </trkpt>
      <trkpt lat="60.0182432" lon="17.746776">
        <ele>51.5679</ele>
        <time>2014-06-07T15:15:57Z</time>
      </trkpt>
      <trkpt lat="60.0182718" lon="17.7467798">
        <ele>52.5292</ele>
        <time>2014-06-07T15:15:58Z</time>
      </trkpt>
      <trkpt lat="60.0182943" lon="17.7467857">
        <ele>52.0486</ele>
        <time>2014-06-07T15:15:59Z</time>
      </trkpt>
      <trkpt lat="60.0183172" lon="17.7467922">
        <ele>51.5679</ele>
        <time>2014-06-07T15:16:00Z</time>
      </trkpt>
      <trkpt lat="60.0183419" lon="17.7467989">
        <ele>52.0486</ele>
        <time>2014-06-07T15:16:01Z</time>
      </trkpt>
      <trkpt lat="60.0183576" lon="17.7468114">
        <ele>51.5679</ele>
        <time>2014-06-07T15:16:02Z</time>
      </trkpt>
      <trkpt lat="60.0183782" lon="17.7468203">
        <ele>51.5679</ele>
        <time>2014-06-07T15:16:03Z</time>
      </trkpt>
      <trkpt lat="60.0184082" lon="17.7468256">
        <ele>52.0486</ele>
        <time>2014-06-07T15:16:04Z</time>
      </trkpt>
      <trkpt lat="60.018438" lon="17.7468324">
        <ele>52.0486</ele>
        <time>2014-06-07T15:16:05Z</time>
      </trkpt>
      <trkpt lat="60.0184747" lon="17.7468324">
        <ele>53.9712</ele>
        <time>2014-06-07T15:16:06Z</time>
      </trkpt>
      <trkpt lat="60.0185041" lon="17.7468432">
        <ele>53.9712</ele>
        <time>2014-06-07T15:16:07Z</time>
      </trkpt>
      <trkpt lat="60.0185208" lon="17.7468453">
        <ele>52.5292</ele>
        <time>2014-06-07T15:16:08Z</time>
      </trkpt>
      <trkpt lat="60.0185395" lon="17.7468476">
        <ele>51.5679</ele>
        <time>2014-06-07T15:16:09Z</time>
      </trkpt>
      <trkpt lat="60.0185638" lon="17.7468526">
        <ele>51.0872</ele>
        <time>2014-06-07T15:16:10Z</time>
      </trkpt>
      <trkpt lat="60.0185824" lon="17.7468535">
        <ele>50.6066</ele>
        <time>2014-06-07T15:16:11Z</time>
      </trkpt>
      <trkpt lat="60.0185985" lon="17.7468436">
        <ele>50.6066</ele>
        <time>2014-06-07T15:16:12Z</time>
      </trkpt>
      <trkpt lat="60.0186198" lon="17.7468265">
        <ele>50.6066</ele>
        <time>2014-06-07T15:16:13Z</time>
      </trkpt>
      <trkpt lat="60.0186453" lon="17.7468064">
        <ele>51.0872</ele>
        <time>2014-06-07T15:16:14Z</time>
      </trkpt>
      <trkpt lat="60.018669" lon="17.7467891">
        <ele>51.0872</ele>
        <time>2014-06-07T15:16:15Z</time>
      </trkpt>
      <trkpt lat="60.0186924" lon="17.7467785">
        <ele>51.0872</ele>
        <time>2014-06-07T15:16:16Z</time>
      </trkpt>
      <trkpt lat="60.0187165" lon="17.7467696">
        <ele>50.6066</ele>
        <time>2014-06-07T15:16:17Z</time>
      </trkpt>
      <trkpt lat="60.018741" lon="17.7467542">
        <ele>50.6066</ele>
        <time>2014-06-07T15:16:18Z</time>
      </trkpt>
      <trkpt lat="60.0187643" lon="17.746743">
        <ele>51.0872</ele>
        <time>2014-06-07T15:16:19Z</time>
      </trkpt>
      <trkpt lat="60.0187845" lon="17.7467326">
        <ele>51.0872</ele>
        <time>2014-06-07T15:16:20Z</time>
      </trkpt>
      <trkpt lat="60.0188063" lon="17.7467235">
        <ele>51.0872</ele>
        <time>2014-06-07T15:16:21Z</time>
      </trkpt>
      <trkpt lat="60.0188299" lon="17.7467091">
        <ele>51.0872</ele>
        <time>2014-06-07T15:16:22Z</time>
      </trkpt>
      <trkpt lat="60.0188556" lon="17.746707">
        <ele>50.6066</ele>
        <time>2014-06-07T15:16:23Z</time>
      </trkpt>
      <trkpt lat="60.0188856" lon="17.7466944">
        <ele>51.0872</ele>
        <time>2014-06-07T15:16:24Z</time>
      </trkpt>
      <trkpt lat="60.0189115" lon="17.7466816">
        <ele>51.5679</ele>
        <time>2014-06-07T15:16:25Z</time>
      </trkpt>
      <trkpt lat="60.0189363" lon="17.7466667">
        <ele>52.0486</ele>
        <time>2014-06-07T15:16:26Z</time>
      </trkpt>
      <trkpt lat="60.0189601" lon="17.7466599">
        <ele>52.0486</ele>
        <time>2014-06-07T15:16:27Z</time>
      </trkpt>
      <trkpt lat="60.0189853" lon="17.7466629">
        <ele>51.5679</ele>
        <time>2014-06-07T15:16:28Z</time>
      </trkpt>
      <trkpt lat="60.019007" lon="17.7466601">
        <ele>51.5679</ele>
        <time>2014-06-07T15:16:29Z</time>
      </trkpt>
      <trkpt lat="60.0190296" lon="17.7466545">
        <ele>51.0872</ele>
        <time>2014-06-07T15:16:30Z</time>
      </trkpt>
      <trkpt lat="60.0190601" lon="17.74664">
        <ele>52.0486</ele>
        <time>2014-06-07T15:16:31Z</time>
      </trkpt>
      <trkpt lat="60.01909" lon="17.7466335">
        <ele>52.0486</ele>
        <time>2014-06-07T15:16:32Z</time>
      </trkpt>
      <trkpt lat="60.0191136" lon="17.7466245">
        <ele>52.0486</ele>
        <time>2014-06-07T15:16:33Z</time>
      </trkpt>
      <trkpt lat="60.0191419" lon="17.7466095">
        <ele>53.0098</ele>
        <time>2014-06-07T15:16:34Z</time>
      </trkpt>
      <trkpt lat="60.0191648" lon="17.7465949">
        <ele>53.0098</ele>
        <time>2014-06-07T15:16:35Z</time>
      </trkpt>
      <trkpt lat="60.0191865" lon="17.746593">
        <ele>52.5292</ele>
        <time>2014-06-07T15:16:36Z</time>
      </trkpt>
      <trkpt lat="60.0192109" lon="17.7465762">
        <ele>53.4905</ele>
        <time>2014-06-07T15:16:37Z</time>
      </trkpt>
      <trkpt lat="60.0192306" lon="17.7465555">
        <ele>53.9712</ele>
        <time>2014-06-07T15:16:38Z</time>
      </trkpt>
      <trkpt lat="60.0192573" lon="17.746561">
        <ele>53.4905</ele>
        <time>2014-06-07T15:16:39Z</time>
      </trkpt>
      <trkpt lat="60.0192832" lon="17.7465434">
        <ele>53.9712</ele>
        <time>2014-06-07T15:16:40Z</time>
      </trkpt>
      <trkpt lat="60.0193097" lon="17.7465266">
        <ele>54.9324</ele>
        <time>2014-06-07T15:16:41Z</time>
      </trkpt>
      <trkpt lat="60.0193326" lon="17.7465195">
        <ele>54.9324</ele>
        <time>2014-06-07T15:16:42Z</time>
      </trkpt>
      <trkpt lat="60.0193559" lon="17.7465048">
        <ele>55.8938</ele>
        <time>2014-06-07T15:16:43Z</time>
      </trkpt>
      <trkpt lat="60.0193818" lon="17.7465039">
        <ele>56.3745</ele>
        <time>2014-06-07T15:16:44Z</time>
      </trkpt>
      <trkpt lat="60.0194081" lon="17.7465121">
        <ele>56.8551</ele>
        <time>2014-06-07T15:16:45Z</time>
      </trkpt>
      <trkpt lat="60.0194388" lon="17.7465184">
        <ele>57.3358</ele>
        <time>2014-06-07T15:16:46Z</time>
      </trkpt>
      <trkpt lat="60.0194755" lon="17.7465213">
        <ele>57.8165</ele>
        <time>2014-06-07T15:16:47Z</time>
      </trkpt>
      <trkpt lat="60.0195072" lon="17.7465329">
        <ele>58.2971</ele>
        <time>2014-06-07T15:16:48Z</time>
      </trkpt>
      <trkpt lat="60.0195435" lon="17.7465484">
        <ele>58.2971</ele>
        <time>2014-06-07T15:16:49Z</time>
      </trkpt>
      <trkpt lat="60.0195789" lon="17.7465469">
        <ele>58.7777</ele>
        <time>2014-06-07T15:16:50Z</time>
      </trkpt>
      <trkpt lat="60.0196108" lon="17.7465447">
        <ele>59.7391</ele>
        <time>2014-06-07T15:16:51Z</time>
      </trkpt>
      <trkpt lat="60.0196458" lon="17.7465411">
        <ele>61.6617</ele>
        <time>2014-06-07T15:16:52Z</time>
      </trkpt>
      <trkpt lat="60.0196769" lon="17.7465401">
        <ele>61.6617</ele>
        <time>2014-06-07T15:16:53Z</time>
      </trkpt>
      <trkpt lat="60.0197153" lon="17.7465495">
        <ele>62.1423</ele>
        <time>2014-06-07T15:16:54Z</time>
      </trkpt>
      <trkpt lat="60.0197428" lon="17.7465506">
        <ele>61.6617</ele>
        <time>2014-06-07T15:16:55Z</time>
      </trkpt>
      <trkpt lat="60.019769" lon="17.7465609">
        <ele>62.1423</ele>
        <time>2014-06-07T15:16:56Z</time>
      </trkpt>
      <trkpt lat="60.0198019" lon="17.7465833">
        <ele>62.6229</ele>
        <time>2014-06-07T15:16:57Z</time>
      </trkpt>
      <trkpt lat="60.019826" lon="17.7465965">
        <ele>62.6229</ele>
        <time>2014-06-07T15:16:58Z</time>
      </trkpt>
      <trkpt lat="60.0198557" lon="17.7465982">
        <ele>64.0651</ele>
        <time>2014-06-07T15:16:59Z</time>
      </trkpt>
      <trkpt lat="60.0198846" lon="17.7466095">
        <ele>64.5457</ele>
        <time>2014-06-07T15:17:00Z</time>
      </trkpt>
      <trkpt lat="60.0199133" lon="17.7466172">
        <ele>65.5071</ele>
        <time>2014-06-07T15:17:01Z</time>
      </trkpt>
      <trkpt lat="60.0199377" lon="17.7466563">
        <ele>64.0651</ele>
        <time>2014-06-07T15:17:02Z</time>
      </trkpt>
      <trkpt lat="60.0199657" lon="17.746684">
        <ele>63.1036</ele>
        <time>2014-06-07T15:17:03Z</time>
      </trkpt>
      <trkpt lat="60.0199888" lon="17.7467022">
        <ele>62.1423</ele>
        <time>2014-06-07T15:17:04Z</time>
      </trkpt>
      <trkpt lat="60.020013" lon="17.746725">
        <ele>61.181</ele>
        <time>2014-06-07T15:17:05Z</time>
      </trkpt>
      <trkpt lat="60.0200348" lon="17.7467598">
        <ele>60.2197</ele>
        <time>2014-06-07T15:17:06Z</time>
      </trkpt>
      <trkpt lat="60.0200566" lon="17.7467982">
        <ele>59.2584</ele>
        <time>2014-06-07T15:17:07Z</time>
      </trkpt>
      <trkpt lat="60.0200705" lon="17.7468373">
        <ele>58.2971</ele>
        <time>2014-06-07T15:17:08Z</time>
      </trkpt>
      <trkpt lat="60.0200759" lon="17.7468798">
        <ele>56.3745</ele>
        <time>2014-06-07T15:17:09Z</time>
      </trkpt>
      <trkpt lat="60.0200851" lon="17.7469264">
        <ele>55.8938</ele>
        <time>2014-06-07T15:17:10Z</time>
      </trkpt>
      <trkpt lat="60.0201035" lon="17.7469871">
        <ele>55.4131</ele>
        <time>2014-06-07T15:17:11Z</time>
      </trkpt>
      <trkpt lat="60.0201142" lon="17.7470437">
        <ele>54.4518</ele>
        <time>2014-06-07T15:17:12Z</time>
      </trkpt>
      <trkpt lat="60.0201316" lon="17.7470943">
        <ele>54.4518</ele>
        <time>2014-06-07T15:17:13Z</time>
      </trkpt>
      <trkpt lat="60.0201453" lon="17.7471369">
        <ele>54.4518</ele>
        <time>2014-06-07T15:17:14Z</time>
      </trkpt>
      <trkpt lat="60.0201513" lon="17.7471852">
        <ele>54.4518</ele>
        <time>2014-06-07T15:17:15Z</time>
      </trkpt>
      <trkpt lat="60.0201601" lon="17.7472325">
        <ele>54.4518</ele>
        <time>2014-06-07T15:17:16Z</time>
      </trkpt>
      <trkpt lat="60.0201684" lon="17.7472777">
        <ele>53.9712</ele>
        <time>2014-06-07T15:17:17Z</time>
      </trkpt>
      <trkpt lat="60.0201793" lon="17.7473182">
        <ele>53.9712</ele>
        <time>2014-06-07T15:17:18Z</time>
      </trkpt>
      <trkpt lat="60.020196" lon="17.7473503">
        <ele>53.9712</ele>
        <time>2014-06-07T15:17:19Z</time>
      </trkpt>
      <trkpt lat="60.020209" lon="17.7473872">
        <ele>53.9712</ele>
        <time>2014-06-07T15:17:20Z</time>
      </trkpt>
      <trkpt lat="60.020227" lon="17.7474269">
        <ele>53.9712</ele>
        <time>2014-06-07T15:17:21Z</time>
      </trkpt>
      <trkpt lat="60.0202416" lon="17.7474679">
        <ele>54.4518</ele>
        <time>2014-06-07T15:17:22Z</time>
      </trkpt>
      <trkpt lat="60.0202531" lon="17.7475145">
        <ele>54.9324</ele>
        <time>2014-06-07T15:17:23Z</time>
      </trkpt>
      <trkpt lat="60.0202651" lon="17.7475658">
        <ele>55.4131</ele>
        <time>2014-06-07T15:17:24Z</time>
      </trkpt>
      <trkpt lat="60.0202747" lon="17.7476264">
        <ele>55.8938</ele>
        <time>2014-06-07T15:17:25Z</time>
      </trkpt>
      <trkpt lat="60.0202862" lon="17.7476899">
        <ele>56.3745</ele>
        <time>2014-06-07T15:17:26Z</time>
      </trkpt>
      <trkpt lat="60.0202943" lon="17.7477338">
        <ele>56.8551</ele>
        <time>2014-06-07T15:17:27Z</time>
      </trkpt>
      <trkpt lat="60.0203036" lon="17.7477787">
        <ele>57.8165</ele>
        <time>2014-06-07T15:17:28Z</time>
      </trkpt>
      <trkpt lat="60.0203102" lon="17.7478258">
        <ele>58.2971</ele>
        <time>2014-06-07T15:17:29Z</time>
      </trkpt>
      <trkpt lat="60.0203231" lon="17.7478638">
        <ele>58.2971</ele>
        <time>2014-06-07T15:17:30Z</time>
      </trkpt>
      <trkpt lat="60.0203328" lon="17.7479049">
        <ele>58.7777</ele>
        <time>2014-06-07T15:17:31Z</time>
      </trkpt>
      <trkpt lat="60.0203376" lon="17.7479466">
        <ele>58.2971</ele>
        <time>2014-06-07T15:17:32Z</time>
      </trkpt>
      <trkpt lat="60.0203395" lon="17.7479932">
        <ele>57.3358</ele>
        <time>2014-06-07T15:17:33Z</time>
      </trkpt>
      <trkpt lat="60.0203389" lon="17.7480389">
        <ele>56.3745</ele>
        <time>2014-06-07T15:17:34Z</time>
      </trkpt>
      <trkpt lat="60.020339" lon="17.7480843">
        <ele>56.3745</ele>
        <time>2014-06-07T15:17:35Z</time>
      </trkpt>
      <trkpt lat="60.0203391" lon="17.7481289">
        <ele>55.4131</ele>
        <time>2014-06-07T15:17:36Z</time>
      </trkpt>
      <trkpt lat="60.0203448" lon="17.7481652">
        <ele>55.4131</ele>
        <time>2014-06-07T15:17:37Z</time>
      </trkpt>
      <trkpt lat="60.0203448" lon="17.7482057">
        <ele>54.9324</ele>
        <time>2014-06-07T15:17:38Z</time>
      </trkpt>
      <trkpt lat="60.0203464" lon="17.7482496">
        <ele>54.4518</ele>
        <time>2014-06-07T15:17:39Z</time>
      </trkpt>
      <trkpt lat="60.020349" lon="17.7482983">
        <ele>53.9712</ele>
        <time>2014-06-07T15:17:40Z</time>
      </trkpt>
      <trkpt lat="60.0203536" lon="17.7483449">
        <ele>53.4905</ele>
        <time>2014-06-07T15:17:41Z</time>
      </trkpt>
      <trkpt lat="60.0203607" lon="17.748389">
        <ele>52.5292</ele>
        <time>2014-06-07T15:17:42Z</time>
      </trkpt>
      <trkpt lat="60.020371" lon="17.748435">
        <ele>52.5292</ele>
        <time>2014-06-07T15:17:43Z</time>
      </trkpt>
      <trkpt lat="60.0203816" lon="17.7484802">
        <ele>52.0486</ele>
        <time>2014-06-07T15:17:44Z</time>
      </trkpt>
      <trkpt lat="60.0203903" lon="17.7485272">
        <ele>51.5679</ele>
        <time>2014-06-07T15:17:45Z</time>
      </trkpt>
      <trkpt lat="60.020394" lon="17.7485714">
        <ele>51.0872</ele>
        <time>2014-06-07T15:17:46Z</time>
      </trkpt>
      <trkpt lat="60.0204016" lon="17.7486092">
        <ele>51.0872</ele>
        <time>2014-06-07T15:17:47Z</time>
      </trkpt>
      <trkpt lat="60.0204095" lon="17.74865">
        <ele>51.0872</ele>
        <time>2014-06-07T15:17:48Z</time>
      </trkpt>
      <trkpt lat="60.0204173" lon="17.7486868">
        <ele>50.6066</ele>
        <time>2014-06-07T15:17:49Z</time>
      </trkpt>
      <trkpt lat="60.0204331" lon="17.7487228">
        <ele>50.6066</ele>
        <time>2014-06-07T15:17:50Z</time>
      </trkpt>
      <trkpt lat="60.0204472" lon="17.7487666">
        <ele>50.6066</ele>
        <time>2014-06-07T15:17:51Z</time>
      </trkpt>
      <trkpt lat="60.0204624" lon="17.7487949">
        <ele>50.6066</ele>
        <time>2014-06-07T15:17:52Z</time>
      </trkpt>
      <trkpt lat="60.0204806" lon="17.7488176">
        <ele>51.0872</ele>
        <time>2014-06-07T15:17:53Z</time>
      </trkpt>
      <trkpt lat="60.0204954" lon="17.7488435">
        <ele>51.0872</ele>
        <time>2014-06-07T15:17:54Z</time>
      </trkpt>
      <trkpt lat="60.0205088" lon="17.7488644">
        <ele>50.6066</ele>
        <time>2014-06-07T15:17:55Z</time>
      </trkpt>
      <trkpt lat="60.0205306" lon="17.7488877">
        <ele>51.0872</ele>
        <time>2014-06-07T15:17:56Z</time>
      </trkpt>
      <trkpt lat="60.0205551" lon="17.7489099">
        <ele>51.0872</ele>
        <time>2014-06-07T15:17:57Z</time>
      </trkpt>
      <trkpt lat="60.0205845" lon="17.7489322">
        <ele>51.0872</ele>
        <time>2014-06-07T15:17:58Z</time>
      </trkpt>
      <trkpt lat="60.0206188" lon="17.7489606">
        <ele>52.0486</ele>
        <time>2014-06-07T15:17:59Z</time>
      </trkpt>
      <trkpt lat="60.0206488" lon="17.748995">
        <ele>53.0098</ele>
        <time>2014-06-07T15:18:00Z</time>
      </trkpt>
      <trkpt lat="60.0206642" lon="17.749025">
        <ele>52.5292</ele>
        <time>2014-06-07T15:18:01Z</time>
      </trkpt>
      <trkpt lat="60.0206785" lon="17.7490535">
        <ele>52.0486</ele>
        <time>2014-06-07T15:18:02Z</time>
      </trkpt>
      <trkpt lat="60.0206934" lon="17.7490841">
        <ele>52.0486</ele>
        <time>2014-06-07T15:18:03Z</time>
      </trkpt>
      <trkpt lat="60.0207178" lon="17.7491088">
        <ele>52.5292</ele>
        <time>2014-06-07T15:18:04Z</time>
      </trkpt>
      <trkpt lat="60.0207372" lon="17.749131">
        <ele>52.5292</ele>
        <time>2014-06-07T15:18:05Z</time>
      </trkpt>
      <trkpt lat="60.0207607" lon="17.749156">
        <ele>53.0098</ele>
        <time>2014-06-07T15:18:06Z</time>
      </trkpt>
      <trkpt lat="60.0207875" lon="17.7491821">
        <ele>53.4905</ele>
        <time>2014-06-07T15:18:07Z</time>
      </trkpt>
      <trkpt lat="60.0208125" lon="17.7492036">
        <ele>53.0098</ele>
        <time>2014-06-07T15:18:08Z</time>
      </trkpt>
      <trkpt lat="60.0208352" lon="17.7492234">
        <ele>53.0098</ele>
        <time>2014-06-07T15:18:09Z</time>
      </trkpt>
      <trkpt lat="60.0208586" lon="17.749245">
        <ele>53.0098</ele>
        <time>2014-06-07T15:18:10Z</time>
      </trkpt>
      <trkpt lat="60.0208881" lon="17.7492669">
        <ele>53.9712</ele>
        <time>2014-06-07T15:18:11Z</time>
      </trkpt>
      <trkpt lat="60.0209141" lon="17.7492958">
        <ele>54.9324</ele>
        <time>2014-06-07T15:18:12Z</time>
      </trkpt>
      <trkpt lat="60.0209323" lon="17.7493227">
        <ele>54.9324</ele>
        <time>2014-06-07T15:18:13Z</time>
      </trkpt>
      <trkpt lat="60.0209544" lon="17.749352">
        <ele>54.9324</ele>
        <time>2014-06-07T15:18:14Z</time>
      </trkpt>
      <trkpt lat="60.0209705" lon="17.7493839">
        <ele>54.4518</ele>
        <time>2014-06-07T15:18:15Z</time>
      </trkpt>
      <trkpt lat="60.0209948" lon="17.7494115">
        <ele>54.9324</ele>
        <time>2014-06-07T15:18:16Z</time>
      </trkpt>
      <trkpt lat="60.0210024" lon="17.7494374">
        <ele>53.9712</ele>
        <time>2014-06-07T15:18:17Z</time>
      </trkpt>
      <trkpt lat="60.0210162" lon="17.7494694">
        <ele>53.4905</ele>
        <time>2014-06-07T15:18:18Z</time>
      </trkpt>
      <trkpt lat="60.0210368" lon="17.7495087">
        <ele>53.4905</ele>
        <time>2014-06-07T15:18:19Z</time>
      </trkpt>
      <trkpt lat="60.0210544" lon="17.7495468">
        <ele>52.5292</ele>
        <time>2014-06-07T15:18:20Z</time>
      </trkpt>
      <trkpt lat="60.0210761" lon="17.7495804">
        <ele>52.5292</ele>
        <time>2014-06-07T15:18:21Z</time>
      </trkpt>
      <trkpt lat="60.0210959" lon="17.7496042">
        <ele>52.5292</ele>
        <time>2014-06-07T15:18:22Z</time>
      </trkpt>
      <trkpt lat="60.0211222" lon="17.7496248">
        <ele>53.4905</ele>
        <time>2014-06-07T15:18:23Z</time>
      </trkpt>
      <trkpt lat="60.0211496" lon="17.74964">
        <ele>53.4905</ele>
        <time>2014-06-07T15:18:24Z</time>
      </trkpt>
      <trkpt lat="60.0211718" lon="17.7496529">
        <ele>53.9712</ele>
        <time>2014-06-07T15:18:25Z</time>
      </trkpt>
      <trkpt lat="60.0211869" lon="17.7496582">
        <ele>53.9712</ele>
        <time>2014-06-07T15:18:26Z</time>
      </trkpt>
      <trkpt lat="60.0212047" lon="17.7496749">
        <ele>54.9324</ele>
        <time>2014-06-07T15:18:27Z</time>
      </trkpt>
      <trkpt lat="60.0212166" lon="17.7496845">
        <ele>54.9324</ele>
        <time>2014-06-07T15:18:28Z</time>
      </trkpt>
      <trkpt lat="60.0212274" lon="17.7496942">
        <ele>54.4518</ele>
        <time>2014-06-07T15:18:29Z</time>
      </trkpt>
      <trkpt lat="60.0212588" lon="17.7497197">
        <ele>55.4131</ele>
        <time>2014-06-07T15:18:30Z</time>
      </trkpt>
      <trkpt lat="60.0212866" lon="17.7497332">
        <ele>55.4131</ele>
        <time>2014-06-07T15:18:31Z</time>
      </trkpt>
      <trkpt lat="60.021314" lon="17.7497488">
        <ele>55.4131</ele>
        <time>2014-06-07T15:18:32Z</time>
      </trkpt>
      <trkpt lat="60.0213398" lon="17.7497596">
        <ele>54.9324</ele>
        <time>2014-06-07T15:18:33Z</time>
      </trkpt>
      <trkpt lat="60.0213591" lon="17.7497654">
        <ele>54.9324</ele>
        <time>2014-06-07T15:18:34Z</time>
      </trkpt>
      <trkpt lat="60.0213974" lon="17.7497734">
        <ele>54.4518</ele>
        <time>2014-06-07T15:18:35Z</time>
      </trkpt>
      <trkpt lat="60.021426" lon="17.7497822">
        <ele>54.4518</ele>
        <time>2014-06-07T15:18:36Z</time>
      </trkpt>
      <trkpt lat="60.0214455" lon="17.7497806">
        <ele>53.9712</ele>
        <time>2014-06-07T15:18:37Z</time>
      </trkpt>
      <trkpt lat="60.0214699" lon="17.7497787">
        <ele>53.4905</ele>
        <time>2014-06-07T15:18:38Z</time>
      </trkpt>
      <trkpt lat="60.0214886" lon="17.7497819">
        <ele>53.0098</ele>
        <time>2014-06-07T15:18:39Z</time>
      </trkpt>
    </trkseg>
  </trk>
</gpx>